<?xml version="1.0" encoding="utf-8"?>
<gpx xmlns:xsi="http://www.w3.org/2001/XMLSchema-instance" xmlns:xsd="http://www.w3.org/2001/XMLSchema" version="1.1" creator="Shapelink.com" xmlns="http://www.topografix.com/GPX/1/1" xmlns:gpxtpx="http://www.garmin.com/xmlschemas/TrackPointExtension/v1">
  <metadata>
    <name>Ejecutar 5.40 km, 2020-02-06</name>
    <desc></desc>
    <author><name>Peter Littke</name></author> 
    <time>2020-02-06T06:30:59Z</time>
  </metadata>
  <trk>
    <name>Ejecutar 5.40 km, 2020-02-06</name>
    <trkseg>
      <trkpt lat="59.29914" lon="18.081827">
        <ele>46</ele>
        <time>2020-02-06T06:30:59Z</time>
      </trkpt>
      <trkpt lat="59.29915" lon="18.081868">
        <ele>47</ele>
        <time>2020-02-06T06:31:02Z</time>
      </trkpt>
      <trkpt lat="59.299155" lon="18.08191">
        <ele>47</ele>
        <time>2020-02-06T06:31:03Z</time>
      </trkpt>
      <trkpt lat="59.299139" lon="18.081988">
        <ele>47</ele>
        <time>2020-02-06T06:31:05Z</time>
      </trkpt>
      <trkpt lat="59.299126" lon="18.082036">
        <ele>47</ele>
        <time>2020-02-06T06:31:06Z</time>
      </trkpt>
      <trkpt lat="59.299113" lon="18.08209">
        <ele>47</ele>
        <time>2020-02-06T06:31:07Z</time>
      </trkpt>
      <trkpt lat="59.299098" lon="18.082136">
        <ele>46</ele>
        <time>2020-02-06T06:31:08Z</time>
      </trkpt>
      <trkpt lat="59.299079" lon="18.082178">
        <ele>46</ele>
        <time>2020-02-06T06:31:09Z</time>
      </trkpt>
      <trkpt lat="59.299059" lon="18.082218">
        <ele>46</ele>
        <time>2020-02-06T06:31:10Z</time>
      </trkpt>
      <trkpt lat="59.299039" lon="18.082256">
        <ele>46</ele>
        <time>2020-02-06T06:31:11Z</time>
      </trkpt>
      <trkpt lat="59.299021" lon="18.082299">
        <ele>46</ele>
        <time>2020-02-06T06:31:12Z</time>
      </trkpt>
      <trkpt lat="59.299001" lon="18.082338">
        <ele>46</ele>
        <time>2020-02-06T06:31:13Z</time>
      </trkpt>
      <trkpt lat="59.298978" lon="18.082376">
        <ele>46</ele>
        <time>2020-02-06T06:31:14Z</time>
      </trkpt>
      <trkpt lat="59.298954" lon="18.082415">
        <ele>46</ele>
        <time>2020-02-06T06:31:15Z</time>
      </trkpt>
      <trkpt lat="59.298927" lon="18.082445">
        <ele>46</ele>
        <time>2020-02-06T06:31:16Z</time>
      </trkpt>
      <trkpt lat="59.298905" lon="18.082481">
        <ele>46</ele>
        <time>2020-02-06T06:31:17Z</time>
      </trkpt>
      <trkpt lat="59.29888" lon="18.08251">
        <ele>46</ele>
        <time>2020-02-06T06:31:19Z</time>
      </trkpt>
      <trkpt lat="59.298855" lon="18.082534">
        <ele>46</ele>
        <time>2020-02-06T06:31:19Z</time>
      </trkpt>
      <trkpt lat="59.298833" lon="18.082551">
        <ele>46</ele>
        <time>2020-02-06T06:31:20Z</time>
      </trkpt>
      <trkpt lat="59.298813" lon="18.082557">
        <ele>46</ele>
        <time>2020-02-06T06:31:21Z</time>
      </trkpt>
      <trkpt lat="59.298807" lon="18.082498">
        <ele>45</ele>
        <time>2020-02-06T06:31:24Z</time>
      </trkpt>
      <trkpt lat="59.29882" lon="18.082425">
        <ele>45</ele>
        <time>2020-02-06T06:31:26Z</time>
      </trkpt>
      <trkpt lat="59.29883" lon="18.08238">
        <ele>45</ele>
        <time>2020-02-06T06:31:27Z</time>
      </trkpt>
      <trkpt lat="59.298845" lon="18.082334">
        <ele>45</ele>
        <time>2020-02-06T06:31:28Z</time>
      </trkpt>
      <trkpt lat="59.298861" lon="18.082294">
        <ele>45</ele>
        <time>2020-02-06T06:31:29Z</time>
      </trkpt>
      <trkpt lat="59.298874" lon="18.082246">
        <ele>45</ele>
        <time>2020-02-06T06:31:30Z</time>
      </trkpt>
      <trkpt lat="59.298892" lon="18.082205">
        <ele>45</ele>
        <time>2020-02-06T06:31:31Z</time>
      </trkpt>
      <trkpt lat="59.298911" lon="18.082161">
        <ele>45</ele>
        <time>2020-02-06T06:31:32Z</time>
      </trkpt>
      <trkpt lat="59.29893" lon="18.082112">
        <ele>45</ele>
        <time>2020-02-06T06:31:33Z</time>
      </trkpt>
      <trkpt lat="59.298945" lon="18.082072">
        <ele>45</ele>
        <time>2020-02-06T06:31:34Z</time>
      </trkpt>
      <trkpt lat="59.298959" lon="18.082039">
        <ele>45</ele>
        <time>2020-02-06T06:31:35Z</time>
      </trkpt>
      <trkpt lat="59.298976" lon="18.082019">
        <ele>45</ele>
        <time>2020-02-06T06:31:36Z</time>
      </trkpt>
      <trkpt lat="59.298997" lon="18.081991">
        <ele>45</ele>
        <time>2020-02-06T06:31:37Z</time>
      </trkpt>
      <trkpt lat="59.299028" lon="18.081998">
        <ele>45</ele>
        <time>2020-02-06T06:31:38Z</time>
      </trkpt>
      <trkpt lat="59.299157" lon="18.082054">
        <ele>44</ele>
        <time>2020-02-06T06:31:41Z</time>
      </trkpt>
      <trkpt lat="59.29925" lon="18.082093">
        <ele>45</ele>
        <time>2020-02-06T06:31:43Z</time>
      </trkpt>
      <trkpt lat="59.299343" lon="18.082161">
        <ele>45</ele>
        <time>2020-02-06T06:31:45Z</time>
      </trkpt>
      <trkpt lat="59.299415" lon="18.082267">
        <ele>45</ele>
        <time>2020-02-06T06:31:48Z</time>
      </trkpt>
      <trkpt lat="59.299458" lon="18.082256">
        <ele>45</ele>
        <time>2020-02-06T06:31:50Z</time>
      </trkpt>
      <trkpt lat="59.299516" lon="18.082265">
        <ele>45</ele>
        <time>2020-02-06T06:31:52Z</time>
      </trkpt>
      <trkpt lat="59.29954" lon="18.082261">
        <ele>45</ele>
        <time>2020-02-06T06:31:53Z</time>
      </trkpt>
      <trkpt lat="59.299559" lon="18.082244">
        <ele>45</ele>
        <time>2020-02-06T06:31:54Z</time>
      </trkpt>
      <trkpt lat="59.299579" lon="18.082225">
        <ele>45</ele>
        <time>2020-02-06T06:31:55Z</time>
      </trkpt>
      <trkpt lat="59.299598" lon="18.082203">
        <ele>45</ele>
        <time>2020-02-06T06:31:56Z</time>
      </trkpt>
      <trkpt lat="59.29962" lon="18.082179">
        <ele>45</ele>
        <time>2020-02-06T06:31:57Z</time>
      </trkpt>
      <trkpt lat="59.299641" lon="18.082151">
        <ele>45</ele>
        <time>2020-02-06T06:31:58Z</time>
      </trkpt>
      <trkpt lat="59.299663" lon="18.082136">
        <ele>45</ele>
        <time>2020-02-06T06:31:59Z</time>
      </trkpt>
      <trkpt lat="59.299757" lon="18.082086">
        <ele>45</ele>
        <time>2020-02-06T06:32:03Z</time>
      </trkpt>
      <trkpt lat="59.29978" lon="18.082075">
        <ele>45</ele>
        <time>2020-02-06T06:32:04Z</time>
      </trkpt>
      <trkpt lat="59.299798" lon="18.082056">
        <ele>45</ele>
        <time>2020-02-06T06:32:05Z</time>
      </trkpt>
      <trkpt lat="59.299821" lon="18.082045">
        <ele>45</ele>
        <time>2020-02-06T06:32:06Z</time>
      </trkpt>
      <trkpt lat="59.299848" lon="18.082032">
        <ele>45</ele>
        <time>2020-02-06T06:32:07Z</time>
      </trkpt>
      <trkpt lat="59.299874" lon="18.082016">
        <ele>45</ele>
        <time>2020-02-06T06:32:08Z</time>
      </trkpt>
      <trkpt lat="59.299904" lon="18.081999">
        <ele>45</ele>
        <time>2020-02-06T06:32:09Z</time>
      </trkpt>
      <trkpt lat="59.299928" lon="18.081978">
        <ele>45</ele>
        <time>2020-02-06T06:32:10Z</time>
      </trkpt>
      <trkpt lat="59.299954" lon="18.081952">
        <ele>45</ele>
        <time>2020-02-06T06:32:11Z</time>
      </trkpt>
      <trkpt lat="59.299979" lon="18.08193">
        <ele>45</ele>
        <time>2020-02-06T06:32:12Z</time>
      </trkpt>
      <trkpt lat="59.300007" lon="18.081912">
        <ele>45</ele>
        <time>2020-02-06T06:32:13Z</time>
      </trkpt>
      <trkpt lat="59.300025" lon="18.081893">
        <ele>45</ele>
        <time>2020-02-06T06:32:14Z</time>
      </trkpt>
      <trkpt lat="59.300043" lon="18.081864">
        <ele>45</ele>
        <time>2020-02-06T06:32:15Z</time>
      </trkpt>
      <trkpt lat="59.300062" lon="18.081839">
        <ele>45</ele>
        <time>2020-02-06T06:32:16Z</time>
      </trkpt>
      <trkpt lat="59.300085" lon="18.08181">
        <ele>45</ele>
        <time>2020-02-06T06:32:17Z</time>
      </trkpt>
      <trkpt lat="59.300108" lon="18.08178">
        <ele>45</ele>
        <time>2020-02-06T06:32:18Z</time>
      </trkpt>
      <trkpt lat="59.300133" lon="18.081756">
        <ele>45</ele>
        <time>2020-02-06T06:32:19Z</time>
      </trkpt>
      <trkpt lat="59.300158" lon="18.081735">
        <ele>44</ele>
        <time>2020-02-06T06:32:20Z</time>
      </trkpt>
      <trkpt lat="59.300183" lon="18.081715">
        <ele>44</ele>
        <time>2020-02-06T06:32:21Z</time>
      </trkpt>
      <trkpt lat="59.300207" lon="18.081698">
        <ele>44</ele>
        <time>2020-02-06T06:32:22Z</time>
      </trkpt>
      <trkpt lat="59.300231" lon="18.081678">
        <ele>44</ele>
        <time>2020-02-06T06:32:23Z</time>
      </trkpt>
      <trkpt lat="59.300255" lon="18.081668">
        <ele>44</ele>
        <time>2020-02-06T06:32:24Z</time>
      </trkpt>
      <trkpt lat="59.300279" lon="18.081656">
        <ele>44</ele>
        <time>2020-02-06T06:32:25Z</time>
      </trkpt>
      <trkpt lat="59.300303" lon="18.081643">
        <ele>44</ele>
        <time>2020-02-06T06:32:26Z</time>
      </trkpt>
      <trkpt lat="59.300327" lon="18.081629">
        <ele>44</ele>
        <time>2020-02-06T06:32:27Z</time>
      </trkpt>
      <trkpt lat="59.300355" lon="18.081618">
        <ele>44</ele>
        <time>2020-02-06T06:32:28Z</time>
      </trkpt>
      <trkpt lat="59.300382" lon="18.081604">
        <ele>44</ele>
        <time>2020-02-06T06:32:29Z</time>
      </trkpt>
      <trkpt lat="59.300409" lon="18.081596">
        <ele>44</ele>
        <time>2020-02-06T06:32:30Z</time>
      </trkpt>
      <trkpt lat="59.300443" lon="18.081583">
        <ele>44</ele>
        <time>2020-02-06T06:32:31Z</time>
      </trkpt>
      <trkpt lat="59.300472" lon="18.081567">
        <ele>44</ele>
        <time>2020-02-06T06:32:32Z</time>
      </trkpt>
      <trkpt lat="59.300499" lon="18.081544">
        <ele>44</ele>
        <time>2020-02-06T06:32:33Z</time>
      </trkpt>
      <trkpt lat="59.300522" lon="18.081522">
        <ele>44</ele>
        <time>2020-02-06T06:32:34Z</time>
      </trkpt>
      <trkpt lat="59.30055" lon="18.081505">
        <ele>44</ele>
        <time>2020-02-06T06:32:35Z</time>
      </trkpt>
      <trkpt lat="59.300578" lon="18.081488">
        <ele>44</ele>
        <time>2020-02-06T06:32:36Z</time>
      </trkpt>
      <trkpt lat="59.300607" lon="18.081475">
        <ele>44</ele>
        <time>2020-02-06T06:32:37Z</time>
      </trkpt>
      <trkpt lat="59.300633" lon="18.081459">
        <ele>44</ele>
        <time>2020-02-06T06:32:38Z</time>
      </trkpt>
      <trkpt lat="59.300658" lon="18.08144">
        <ele>44</ele>
        <time>2020-02-06T06:32:39Z</time>
      </trkpt>
      <trkpt lat="59.300683" lon="18.081419">
        <ele>44</ele>
        <time>2020-02-06T06:32:40Z</time>
      </trkpt>
      <trkpt lat="59.300709" lon="18.081398">
        <ele>44</ele>
        <time>2020-02-06T06:32:41Z</time>
      </trkpt>
      <trkpt lat="59.300737" lon="18.08138">
        <ele>44</ele>
        <time>2020-02-06T06:32:42Z</time>
      </trkpt>
      <trkpt lat="59.300764" lon="18.08136">
        <ele>44</ele>
        <time>2020-02-06T06:32:43Z</time>
      </trkpt>
      <trkpt lat="59.30079" lon="18.081339">
        <ele>44</ele>
        <time>2020-02-06T06:32:44Z</time>
      </trkpt>
      <trkpt lat="59.300815" lon="18.081316">
        <ele>44</ele>
        <time>2020-02-06T06:32:45Z</time>
      </trkpt>
      <trkpt lat="59.300837" lon="18.081287">
        <ele>44</ele>
        <time>2020-02-06T06:32:46Z</time>
      </trkpt>
      <trkpt lat="59.30086" lon="18.081263">
        <ele>44</ele>
        <time>2020-02-06T06:32:47Z</time>
      </trkpt>
      <trkpt lat="59.300889" lon="18.081241">
        <ele>44</ele>
        <time>2020-02-06T06:32:48Z</time>
      </trkpt>
      <trkpt lat="59.300911" lon="18.081219">
        <ele>44</ele>
        <time>2020-02-06T06:32:49Z</time>
      </trkpt>
      <trkpt lat="59.300938" lon="18.081193">
        <ele>44</ele>
        <time>2020-02-06T06:32:50Z</time>
      </trkpt>
      <trkpt lat="59.300961" lon="18.081164">
        <ele>44</ele>
        <time>2020-02-06T06:32:51Z</time>
      </trkpt>
      <trkpt lat="59.300984" lon="18.081134">
        <ele>44</ele>
        <time>2020-02-06T06:32:52Z</time>
      </trkpt>
      <trkpt lat="59.301011" lon="18.081112">
        <ele>44</ele>
        <time>2020-02-06T06:32:53Z</time>
      </trkpt>
      <trkpt lat="59.301039" lon="18.081085">
        <ele>44</ele>
        <time>2020-02-06T06:32:54Z</time>
      </trkpt>
      <trkpt lat="59.301063" lon="18.081062">
        <ele>44</ele>
        <time>2020-02-06T06:32:55Z</time>
      </trkpt>
      <trkpt lat="59.301091" lon="18.081032">
        <ele>45</ele>
        <time>2020-02-06T06:32:56Z</time>
      </trkpt>
      <trkpt lat="59.30112" lon="18.081007">
        <ele>45</ele>
        <time>2020-02-06T06:32:57Z</time>
      </trkpt>
      <trkpt lat="59.301151" lon="18.080977">
        <ele>45</ele>
        <time>2020-02-06T06:32:58Z</time>
      </trkpt>
      <trkpt lat="59.301177" lon="18.080946">
        <ele>45</ele>
        <time>2020-02-06T06:32:59Z</time>
      </trkpt>
      <trkpt lat="59.301222" lon="18.080888">
        <ele>44</ele>
        <time>2020-02-06T06:33:01Z</time>
      </trkpt>
      <trkpt lat="59.301249" lon="18.080865">
        <ele>44</ele>
        <time>2020-02-06T06:33:02Z</time>
      </trkpt>
      <trkpt lat="59.301274" lon="18.080844">
        <ele>44</ele>
        <time>2020-02-06T06:33:03Z</time>
      </trkpt>
      <trkpt lat="59.301298" lon="18.080828">
        <ele>44</ele>
        <time>2020-02-06T06:33:04Z</time>
      </trkpt>
      <trkpt lat="59.301325" lon="18.080816">
        <ele>44</ele>
        <time>2020-02-06T06:33:05Z</time>
      </trkpt>
      <trkpt lat="59.301344" lon="18.080796">
        <ele>44</ele>
        <time>2020-02-06T06:33:06Z</time>
      </trkpt>
      <trkpt lat="59.301365" lon="18.08078">
        <ele>44</ele>
        <time>2020-02-06T06:33:07Z</time>
      </trkpt>
      <trkpt lat="59.301392" lon="18.08076">
        <ele>44</ele>
        <time>2020-02-06T06:33:08Z</time>
      </trkpt>
      <trkpt lat="59.30142" lon="18.080736">
        <ele>44</ele>
        <time>2020-02-06T06:33:09Z</time>
      </trkpt>
      <trkpt lat="59.301445" lon="18.080706">
        <ele>44</ele>
        <time>2020-02-06T06:33:10Z</time>
      </trkpt>
      <trkpt lat="59.30147" lon="18.080684">
        <ele>44</ele>
        <time>2020-02-06T06:33:11Z</time>
      </trkpt>
      <trkpt lat="59.301489" lon="18.080664">
        <ele>44</ele>
        <time>2020-02-06T06:33:12Z</time>
      </trkpt>
      <trkpt lat="59.301511" lon="18.08064">
        <ele>44</ele>
        <time>2020-02-06T06:33:13Z</time>
      </trkpt>
      <trkpt lat="59.301535" lon="18.080623">
        <ele>44</ele>
        <time>2020-02-06T06:33:14Z</time>
      </trkpt>
      <trkpt lat="59.301553" lon="18.080594">
        <ele>44</ele>
        <time>2020-02-06T06:33:15Z</time>
      </trkpt>
      <trkpt lat="59.301574" lon="18.080566">
        <ele>44</ele>
        <time>2020-02-06T06:33:16Z</time>
      </trkpt>
      <trkpt lat="59.301601" lon="18.080548">
        <ele>44</ele>
        <time>2020-02-06T06:33:17Z</time>
      </trkpt>
      <trkpt lat="59.301624" lon="18.080536">
        <ele>44</ele>
        <time>2020-02-06T06:33:18Z</time>
      </trkpt>
      <trkpt lat="59.301649" lon="18.080522">
        <ele>44</ele>
        <time>2020-02-06T06:33:19Z</time>
      </trkpt>
      <trkpt lat="59.301669" lon="18.080504">
        <ele>44</ele>
        <time>2020-02-06T06:33:20Z</time>
      </trkpt>
      <trkpt lat="59.301689" lon="18.080482">
        <ele>44</ele>
        <time>2020-02-06T06:33:21Z</time>
      </trkpt>
      <trkpt lat="59.301711" lon="18.080468">
        <ele>44</ele>
        <time>2020-02-06T06:33:22Z</time>
      </trkpt>
      <trkpt lat="59.301731" lon="18.080452">
        <ele>44</ele>
        <time>2020-02-06T06:33:23Z</time>
      </trkpt>
      <trkpt lat="59.301755" lon="18.08043">
        <ele>45</ele>
        <time>2020-02-06T06:33:24Z</time>
      </trkpt>
      <trkpt lat="59.301781" lon="18.080402">
        <ele>45</ele>
        <time>2020-02-06T06:33:25Z</time>
      </trkpt>
      <trkpt lat="59.301805" lon="18.080376">
        <ele>45</ele>
        <time>2020-02-06T06:33:26Z</time>
      </trkpt>
      <trkpt lat="59.301836" lon="18.080348">
        <ele>45</ele>
        <time>2020-02-06T06:33:27Z</time>
      </trkpt>
      <trkpt lat="59.301862" lon="18.080329">
        <ele>45</ele>
        <time>2020-02-06T06:33:28Z</time>
      </trkpt>
      <trkpt lat="59.30189" lon="18.08031">
        <ele>45</ele>
        <time>2020-02-06T06:33:29Z</time>
      </trkpt>
      <trkpt lat="59.301923" lon="18.080293">
        <ele>46</ele>
        <time>2020-02-06T06:33:30Z</time>
      </trkpt>
      <trkpt lat="59.30195" lon="18.08028">
        <ele>46</ele>
        <time>2020-02-06T06:33:31Z</time>
      </trkpt>
      <trkpt lat="59.301978" lon="18.080258">
        <ele>46</ele>
        <time>2020-02-06T06:33:32Z</time>
      </trkpt>
      <trkpt lat="59.302008" lon="18.08023">
        <ele>46</ele>
        <time>2020-02-06T06:33:33Z</time>
      </trkpt>
      <trkpt lat="59.302037" lon="18.080204">
        <ele>46</ele>
        <time>2020-02-06T06:33:34Z</time>
      </trkpt>
      <trkpt lat="59.302063" lon="18.080186">
        <ele>46</ele>
        <time>2020-02-06T06:33:35Z</time>
      </trkpt>
      <trkpt lat="59.302095" lon="18.080168">
        <ele>46</ele>
        <time>2020-02-06T06:33:36Z</time>
      </trkpt>
      <trkpt lat="59.302135" lon="18.080166">
        <ele>46</ele>
        <time>2020-02-06T06:33:37Z</time>
      </trkpt>
      <trkpt lat="59.302163" lon="18.080152">
        <ele>46</ele>
        <time>2020-02-06T06:33:38Z</time>
      </trkpt>
      <trkpt lat="59.302193" lon="18.080128">
        <ele>46</ele>
        <time>2020-02-06T06:33:39Z</time>
      </trkpt>
      <trkpt lat="59.302217" lon="18.08011">
        <ele>47</ele>
        <time>2020-02-06T06:33:40Z</time>
      </trkpt>
      <trkpt lat="59.30224" lon="18.080092">
        <ele>47</ele>
        <time>2020-02-06T06:33:41Z</time>
      </trkpt>
      <trkpt lat="59.30226" lon="18.080073">
        <ele>47</ele>
        <time>2020-02-06T06:33:42Z</time>
      </trkpt>
      <trkpt lat="59.302284" lon="18.080054">
        <ele>47</ele>
        <time>2020-02-06T06:33:43Z</time>
      </trkpt>
      <trkpt lat="59.302311" lon="18.080037">
        <ele>47</ele>
        <time>2020-02-06T06:33:44Z</time>
      </trkpt>
      <trkpt lat="59.302334" lon="18.080027">
        <ele>47</ele>
        <time>2020-02-06T06:33:45Z</time>
      </trkpt>
      <trkpt lat="59.30236" lon="18.080012">
        <ele>47</ele>
        <time>2020-02-06T06:33:46Z</time>
      </trkpt>
      <trkpt lat="59.302383" lon="18.079997">
        <ele>47</ele>
        <time>2020-02-06T06:33:47Z</time>
      </trkpt>
      <trkpt lat="59.302409" lon="18.079974">
        <ele>48</ele>
        <time>2020-02-06T06:33:48Z</time>
      </trkpt>
      <trkpt lat="59.302435" lon="18.079958">
        <ele>48</ele>
        <time>2020-02-06T06:33:49Z</time>
      </trkpt>
      <trkpt lat="59.302464" lon="18.079944">
        <ele>48</ele>
        <time>2020-02-06T06:33:50Z</time>
      </trkpt>
      <trkpt lat="59.302493" lon="18.079924">
        <ele>48</ele>
        <time>2020-02-06T06:33:51Z</time>
      </trkpt>
      <trkpt lat="59.302524" lon="18.079908">
        <ele>48</ele>
        <time>2020-02-06T06:33:52Z</time>
      </trkpt>
      <trkpt lat="59.302549" lon="18.079892">
        <ele>48</ele>
        <time>2020-02-06T06:33:53Z</time>
      </trkpt>
      <trkpt lat="59.302575" lon="18.07987">
        <ele>48</ele>
        <time>2020-02-06T06:33:54Z</time>
      </trkpt>
      <trkpt lat="59.302601" lon="18.079856">
        <ele>48</ele>
        <time>2020-02-06T06:33:55Z</time>
      </trkpt>
      <trkpt lat="59.302624" lon="18.079845">
        <ele>48</ele>
        <time>2020-02-06T06:33:56Z</time>
      </trkpt>
      <trkpt lat="59.302648" lon="18.079832">
        <ele>48</ele>
        <time>2020-02-06T06:33:57Z</time>
      </trkpt>
      <trkpt lat="59.302672" lon="18.079814">
        <ele>48</ele>
        <time>2020-02-06T06:33:58Z</time>
      </trkpt>
      <trkpt lat="59.302694" lon="18.0798">
        <ele>47</ele>
        <time>2020-02-06T06:33:59Z</time>
      </trkpt>
      <trkpt lat="59.302718" lon="18.079788">
        <ele>47</ele>
        <time>2020-02-06T06:34:00Z</time>
      </trkpt>
      <trkpt lat="59.302742" lon="18.079778">
        <ele>47</ele>
        <time>2020-02-06T06:34:01Z</time>
      </trkpt>
      <trkpt lat="59.302766" lon="18.079768">
        <ele>47</ele>
        <time>2020-02-06T06:34:03Z</time>
      </trkpt>
      <trkpt lat="59.302792" lon="18.079756">
        <ele>47</ele>
        <time>2020-02-06T06:34:03Z</time>
      </trkpt>
      <trkpt lat="59.302815" lon="18.079748">
        <ele>47</ele>
        <time>2020-02-06T06:34:04Z</time>
      </trkpt>
      <trkpt lat="59.302837" lon="18.079729">
        <ele>47</ele>
        <time>2020-02-06T06:34:05Z</time>
      </trkpt>
      <trkpt lat="59.30286" lon="18.079716">
        <ele>47</ele>
        <time>2020-02-06T06:34:06Z</time>
      </trkpt>
      <trkpt lat="59.302882" lon="18.0797">
        <ele>47</ele>
        <time>2020-02-06T06:34:07Z</time>
      </trkpt>
      <trkpt lat="59.302909" lon="18.079684">
        <ele>47</ele>
        <time>2020-02-06T06:34:08Z</time>
      </trkpt>
      <trkpt lat="59.302937" lon="18.079674">
        <ele>46</ele>
        <time>2020-02-06T06:34:09Z</time>
      </trkpt>
      <trkpt lat="59.302959" lon="18.079663">
        <ele>46</ele>
        <time>2020-02-06T06:34:10Z</time>
      </trkpt>
      <trkpt lat="59.302983" lon="18.079645">
        <ele>46</ele>
        <time>2020-02-06T06:34:11Z</time>
      </trkpt>
      <trkpt lat="59.303007" lon="18.07963">
        <ele>46</ele>
        <time>2020-02-06T06:34:12Z</time>
      </trkpt>
      <trkpt lat="59.30303" lon="18.079617">
        <ele>46</ele>
        <time>2020-02-06T06:34:13Z</time>
      </trkpt>
      <trkpt lat="59.303053" lon="18.079605">
        <ele>46</ele>
        <time>2020-02-06T06:34:14Z</time>
      </trkpt>
      <trkpt lat="59.303079" lon="18.079593">
        <ele>46</ele>
        <time>2020-02-06T06:34:15Z</time>
      </trkpt>
      <trkpt lat="59.3031" lon="18.079579">
        <ele>46</ele>
        <time>2020-02-06T06:34:16Z</time>
      </trkpt>
      <trkpt lat="59.303123" lon="18.079568">
        <ele>46</ele>
        <time>2020-02-06T06:34:17Z</time>
      </trkpt>
      <trkpt lat="59.303147" lon="18.079548">
        <ele>46</ele>
        <time>2020-02-06T06:34:18Z</time>
      </trkpt>
      <trkpt lat="59.303172" lon="18.079534">
        <ele>46</ele>
        <time>2020-02-06T06:34:19Z</time>
      </trkpt>
      <trkpt lat="59.303198" lon="18.079518">
        <ele>45</ele>
        <time>2020-02-06T06:34:20Z</time>
      </trkpt>
      <trkpt lat="59.303226" lon="18.079498">
        <ele>45</ele>
        <time>2020-02-06T06:34:21Z</time>
      </trkpt>
      <trkpt lat="59.303253" lon="18.079482">
        <ele>45</ele>
        <time>2020-02-06T06:34:22Z</time>
      </trkpt>
      <trkpt lat="59.303279" lon="18.07947">
        <ele>45</ele>
        <time>2020-02-06T06:34:23Z</time>
      </trkpt>
      <trkpt lat="59.303302" lon="18.079455">
        <ele>45</ele>
        <time>2020-02-06T06:34:24Z</time>
      </trkpt>
      <trkpt lat="59.303324" lon="18.079444">
        <ele>45</ele>
        <time>2020-02-06T06:34:25Z</time>
      </trkpt>
      <trkpt lat="59.303346" lon="18.079432">
        <ele>45</ele>
        <time>2020-02-06T06:34:26Z</time>
      </trkpt>
      <trkpt lat="59.303369" lon="18.07942">
        <ele>45</ele>
        <time>2020-02-06T06:34:27Z</time>
      </trkpt>
      <trkpt lat="59.303391" lon="18.079408">
        <ele>45</ele>
        <time>2020-02-06T06:34:28Z</time>
      </trkpt>
      <trkpt lat="59.303417" lon="18.079394">
        <ele>45</ele>
        <time>2020-02-06T06:34:29Z</time>
      </trkpt>
      <trkpt lat="59.303445" lon="18.079381">
        <ele>44</ele>
        <time>2020-02-06T06:34:30Z</time>
      </trkpt>
      <trkpt lat="59.303471" lon="18.07937">
        <ele>44</ele>
        <time>2020-02-06T06:34:31Z</time>
      </trkpt>
      <trkpt lat="59.303495" lon="18.079354">
        <ele>44</ele>
        <time>2020-02-06T06:34:32Z</time>
      </trkpt>
      <trkpt lat="59.303522" lon="18.079336">
        <ele>44</ele>
        <time>2020-02-06T06:34:33Z</time>
      </trkpt>
      <trkpt lat="59.303548" lon="18.079318">
        <ele>44</ele>
        <time>2020-02-06T06:34:34Z</time>
      </trkpt>
      <trkpt lat="59.303576" lon="18.079308">
        <ele>44</ele>
        <time>2020-02-06T06:34:35Z</time>
      </trkpt>
      <trkpt lat="59.3036" lon="18.079298">
        <ele>44</ele>
        <time>2020-02-06T06:34:36Z</time>
      </trkpt>
      <trkpt lat="59.303623" lon="18.079285">
        <ele>44</ele>
        <time>2020-02-06T06:34:37Z</time>
      </trkpt>
      <trkpt lat="59.303648" lon="18.079275">
        <ele>44</ele>
        <time>2020-02-06T06:34:38Z</time>
      </trkpt>
      <trkpt lat="59.303674" lon="18.079268">
        <ele>44</ele>
        <time>2020-02-06T06:34:39Z</time>
      </trkpt>
      <trkpt lat="59.3037" lon="18.079248">
        <ele>44</ele>
        <time>2020-02-06T06:34:40Z</time>
      </trkpt>
      <trkpt lat="59.303724" lon="18.07923">
        <ele>43</ele>
        <time>2020-02-06T06:34:41Z</time>
      </trkpt>
      <trkpt lat="59.30375" lon="18.079212">
        <ele>43</ele>
        <time>2020-02-06T06:34:42Z</time>
      </trkpt>
      <trkpt lat="59.303774" lon="18.079194">
        <ele>43</ele>
        <time>2020-02-06T06:34:43Z</time>
      </trkpt>
      <trkpt lat="59.303804" lon="18.079184">
        <ele>43</ele>
        <time>2020-02-06T06:34:44Z</time>
      </trkpt>
      <trkpt lat="59.30383" lon="18.079166">
        <ele>42</ele>
        <time>2020-02-06T06:34:45Z</time>
      </trkpt>
      <trkpt lat="59.30386" lon="18.079146">
        <ele>42</ele>
        <time>2020-02-06T06:34:46Z</time>
      </trkpt>
      <trkpt lat="59.303886" lon="18.079132">
        <ele>42</ele>
        <time>2020-02-06T06:34:47Z</time>
      </trkpt>
      <trkpt lat="59.303915" lon="18.079112">
        <ele>42</ele>
        <time>2020-02-06T06:34:48Z</time>
      </trkpt>
      <trkpt lat="59.303944" lon="18.079092">
        <ele>42</ele>
        <time>2020-02-06T06:34:49Z</time>
      </trkpt>
      <trkpt lat="59.30397" lon="18.079076">
        <ele>42</ele>
        <time>2020-02-06T06:34:50Z</time>
      </trkpt>
      <trkpt lat="59.303998" lon="18.07906">
        <ele>42</ele>
        <time>2020-02-06T06:34:51Z</time>
      </trkpt>
      <trkpt lat="59.304021" lon="18.079042">
        <ele>42</ele>
        <time>2020-02-06T06:34:52Z</time>
      </trkpt>
      <trkpt lat="59.304047" lon="18.079024">
        <ele>42</ele>
        <time>2020-02-06T06:34:53Z</time>
      </trkpt>
      <trkpt lat="59.30407" lon="18.079006">
        <ele>42</ele>
        <time>2020-02-06T06:34:54Z</time>
      </trkpt>
      <trkpt lat="59.304092" lon="18.07899">
        <ele>42</ele>
        <time>2020-02-06T06:34:55Z</time>
      </trkpt>
      <trkpt lat="59.304118" lon="18.07898">
        <ele>41</ele>
        <time>2020-02-06T06:34:56Z</time>
      </trkpt>
      <trkpt lat="59.304143" lon="18.078968">
        <ele>41</ele>
        <time>2020-02-06T06:34:57Z</time>
      </trkpt>
      <trkpt lat="59.304171" lon="18.078958">
        <ele>41</ele>
        <time>2020-02-06T06:34:58Z</time>
      </trkpt>
      <trkpt lat="59.304196" lon="18.078942">
        <ele>41</ele>
        <time>2020-02-06T06:34:59Z</time>
      </trkpt>
      <trkpt lat="59.304222" lon="18.078928">
        <ele>41</ele>
        <time>2020-02-06T06:35:00Z</time>
      </trkpt>
      <trkpt lat="59.304248" lon="18.07891">
        <ele>41</ele>
        <time>2020-02-06T06:35:01Z</time>
      </trkpt>
      <trkpt lat="59.304272" lon="18.078895">
        <ele>41</ele>
        <time>2020-02-06T06:35:02Z</time>
      </trkpt>
      <trkpt lat="59.304297" lon="18.078881">
        <ele>41</ele>
        <time>2020-02-06T06:35:03Z</time>
      </trkpt>
      <trkpt lat="59.304323" lon="18.078861">
        <ele>41</ele>
        <time>2020-02-06T06:35:04Z</time>
      </trkpt>
      <trkpt lat="59.304349" lon="18.078847">
        <ele>41</ele>
        <time>2020-02-06T06:35:05Z</time>
      </trkpt>
      <trkpt lat="59.304371" lon="18.078835">
        <ele>41</ele>
        <time>2020-02-06T06:35:06Z</time>
      </trkpt>
      <trkpt lat="59.3044" lon="18.078821">
        <ele>40</ele>
        <time>2020-02-06T06:35:07Z</time>
      </trkpt>
      <trkpt lat="59.304426" lon="18.078806">
        <ele>40</ele>
        <time>2020-02-06T06:35:08Z</time>
      </trkpt>
      <trkpt lat="59.304452" lon="18.078788">
        <ele>40</ele>
        <time>2020-02-06T06:35:09Z</time>
      </trkpt>
      <trkpt lat="59.30448" lon="18.078773">
        <ele>40</ele>
        <time>2020-02-06T06:35:10Z</time>
      </trkpt>
      <trkpt lat="59.304507" lon="18.078756">
        <ele>40</ele>
        <time>2020-02-06T06:35:11Z</time>
      </trkpt>
      <trkpt lat="59.304533" lon="18.078745">
        <ele>40</ele>
        <time>2020-02-06T06:35:12Z</time>
      </trkpt>
      <trkpt lat="59.304558" lon="18.078732">
        <ele>40</ele>
        <time>2020-02-06T06:35:13Z</time>
      </trkpt>
      <trkpt lat="59.304586" lon="18.078717">
        <ele>39</ele>
        <time>2020-02-06T06:35:14Z</time>
      </trkpt>
      <trkpt lat="59.304612" lon="18.078699">
        <ele>39</ele>
        <time>2020-02-06T06:35:15Z</time>
      </trkpt>
      <trkpt lat="59.304637" lon="18.078686">
        <ele>39</ele>
        <time>2020-02-06T06:35:16Z</time>
      </trkpt>
      <trkpt lat="59.304661" lon="18.078671">
        <ele>39</ele>
        <time>2020-02-06T06:35:17Z</time>
      </trkpt>
      <trkpt lat="59.304684" lon="18.07866">
        <ele>39</ele>
        <time>2020-02-06T06:35:18Z</time>
      </trkpt>
      <trkpt lat="59.304712" lon="18.07865">
        <ele>39</ele>
        <time>2020-02-06T06:35:19Z</time>
      </trkpt>
      <trkpt lat="59.304738" lon="18.07863">
        <ele>39</ele>
        <time>2020-02-06T06:35:20Z</time>
      </trkpt>
      <trkpt lat="59.304765" lon="18.078612">
        <ele>38</ele>
        <time>2020-02-06T06:35:21Z</time>
      </trkpt>
      <trkpt lat="59.304792" lon="18.078595">
        <ele>38</ele>
        <time>2020-02-06T06:35:22Z</time>
      </trkpt>
      <trkpt lat="59.30482" lon="18.07858">
        <ele>38</ele>
        <time>2020-02-06T06:35:23Z</time>
      </trkpt>
      <trkpt lat="59.304847" lon="18.078562">
        <ele>38</ele>
        <time>2020-02-06T06:35:24Z</time>
      </trkpt>
      <trkpt lat="59.304873" lon="18.078543">
        <ele>38</ele>
        <time>2020-02-06T06:35:25Z</time>
      </trkpt>
      <trkpt lat="59.304901" lon="18.078523">
        <ele>38</ele>
        <time>2020-02-06T06:35:26Z</time>
      </trkpt>
      <trkpt lat="59.304928" lon="18.078504">
        <ele>38</ele>
        <time>2020-02-06T06:35:27Z</time>
      </trkpt>
      <trkpt lat="59.304957" lon="18.07848">
        <ele>38</ele>
        <time>2020-02-06T06:35:28Z</time>
      </trkpt>
      <trkpt lat="59.304984" lon="18.078457">
        <ele>38</ele>
        <time>2020-02-06T06:35:29Z</time>
      </trkpt>
      <trkpt lat="59.30501" lon="18.078439">
        <ele>37</ele>
        <time>2020-02-06T06:35:30Z</time>
      </trkpt>
      <trkpt lat="59.305034" lon="18.078424">
        <ele>37</ele>
        <time>2020-02-06T06:35:31Z</time>
      </trkpt>
      <trkpt lat="59.305058" lon="18.078408">
        <ele>37</ele>
        <time>2020-02-06T06:35:32Z</time>
      </trkpt>
      <trkpt lat="59.305084" lon="18.078389">
        <ele>37</ele>
        <time>2020-02-06T06:35:33Z</time>
      </trkpt>
      <trkpt lat="59.305106" lon="18.078368">
        <ele>37</ele>
        <time>2020-02-06T06:35:34Z</time>
      </trkpt>
      <trkpt lat="59.30513" lon="18.078352">
        <ele>37</ele>
        <time>2020-02-06T06:35:35Z</time>
      </trkpt>
      <trkpt lat="59.305155" lon="18.078335">
        <ele>37</ele>
        <time>2020-02-06T06:35:36Z</time>
      </trkpt>
      <trkpt lat="59.305179" lon="18.078319">
        <ele>36</ele>
        <time>2020-02-06T06:35:37Z</time>
      </trkpt>
      <trkpt lat="59.305204" lon="18.078304">
        <ele>36</ele>
        <time>2020-02-06T06:35:38Z</time>
      </trkpt>
      <trkpt lat="59.305232" lon="18.078291">
        <ele>36</ele>
        <time>2020-02-06T06:35:39Z</time>
      </trkpt>
      <trkpt lat="59.305264" lon="18.078272">
        <ele>36</ele>
        <time>2020-02-06T06:35:40Z</time>
      </trkpt>
      <trkpt lat="59.305292" lon="18.078255">
        <ele>36</ele>
        <time>2020-02-06T06:35:41Z</time>
      </trkpt>
      <trkpt lat="59.30532" lon="18.078241">
        <ele>36</ele>
        <time>2020-02-06T06:35:42Z</time>
      </trkpt>
      <trkpt lat="59.305345" lon="18.078226">
        <ele>36</ele>
        <time>2020-02-06T06:35:43Z</time>
      </trkpt>
      <trkpt lat="59.305374" lon="18.078214">
        <ele>36</ele>
        <time>2020-02-06T06:35:44Z</time>
      </trkpt>
      <trkpt lat="59.305399" lon="18.078198">
        <ele>36</ele>
        <time>2020-02-06T06:35:45Z</time>
      </trkpt>
      <trkpt lat="59.305423" lon="18.078183">
        <ele>36</ele>
        <time>2020-02-06T06:35:46Z</time>
      </trkpt>
      <trkpt lat="59.305447" lon="18.078164">
        <ele>36</ele>
        <time>2020-02-06T06:35:47Z</time>
      </trkpt>
      <trkpt lat="59.305471" lon="18.078149">
        <ele>36</ele>
        <time>2020-02-06T06:35:48Z</time>
      </trkpt>
      <trkpt lat="59.305494" lon="18.078132">
        <ele>35</ele>
        <time>2020-02-06T06:35:49Z</time>
      </trkpt>
      <trkpt lat="59.305519" lon="18.078115">
        <ele>35</ele>
        <time>2020-02-06T06:35:50Z</time>
      </trkpt>
      <trkpt lat="59.305545" lon="18.078101">
        <ele>35</ele>
        <time>2020-02-06T06:35:51Z</time>
      </trkpt>
      <trkpt lat="59.305572" lon="18.078085">
        <ele>35</ele>
        <time>2020-02-06T06:35:52Z</time>
      </trkpt>
      <trkpt lat="59.305599" lon="18.078075">
        <ele>35</ele>
        <time>2020-02-06T06:35:53Z</time>
      </trkpt>
      <trkpt lat="59.305622" lon="18.078063">
        <ele>35</ele>
        <time>2020-02-06T06:35:54Z</time>
      </trkpt>
      <trkpt lat="59.305649" lon="18.078042">
        <ele>35</ele>
        <time>2020-02-06T06:35:55Z</time>
      </trkpt>
      <trkpt lat="59.305679" lon="18.078024">
        <ele>35</ele>
        <time>2020-02-06T06:35:56Z</time>
      </trkpt>
      <trkpt lat="59.305705" lon="18.078005">
        <ele>35</ele>
        <time>2020-02-06T06:35:57Z</time>
      </trkpt>
      <trkpt lat="59.305732" lon="18.077988">
        <ele>35</ele>
        <time>2020-02-06T06:35:58Z</time>
      </trkpt>
      <trkpt lat="59.305761" lon="18.077972">
        <ele>35</ele>
        <time>2020-02-06T06:35:59Z</time>
      </trkpt>
      <trkpt lat="59.305787" lon="18.077952">
        <ele>35</ele>
        <time>2020-02-06T06:36:00Z</time>
      </trkpt>
      <trkpt lat="59.305814" lon="18.077934">
        <ele>35</ele>
        <time>2020-02-06T06:36:01Z</time>
      </trkpt>
      <trkpt lat="59.305839" lon="18.077918">
        <ele>35</ele>
        <time>2020-02-06T06:36:02Z</time>
      </trkpt>
      <trkpt lat="59.305868" lon="18.0779">
        <ele>34</ele>
        <time>2020-02-06T06:36:03Z</time>
      </trkpt>
      <trkpt lat="59.305893" lon="18.077884">
        <ele>34</ele>
        <time>2020-02-06T06:36:04Z</time>
      </trkpt>
      <trkpt lat="59.305919" lon="18.077864">
        <ele>34</ele>
        <time>2020-02-06T06:36:05Z</time>
      </trkpt>
      <trkpt lat="59.305946" lon="18.07784">
        <ele>34</ele>
        <time>2020-02-06T06:36:06Z</time>
      </trkpt>
      <trkpt lat="59.305972" lon="18.077821">
        <ele>34</ele>
        <time>2020-02-06T06:36:07Z</time>
      </trkpt>
      <trkpt lat="59.305998" lon="18.077803">
        <ele>34</ele>
        <time>2020-02-06T06:36:08Z</time>
      </trkpt>
      <trkpt lat="59.30602" lon="18.077787">
        <ele>34</ele>
        <time>2020-02-06T06:36:09Z</time>
      </trkpt>
      <trkpt lat="59.306048" lon="18.077776">
        <ele>34</ele>
        <time>2020-02-06T06:36:10Z</time>
      </trkpt>
      <trkpt lat="59.306074" lon="18.077764">
        <ele>34</ele>
        <time>2020-02-06T06:36:11Z</time>
      </trkpt>
      <trkpt lat="59.306104" lon="18.077752">
        <ele>34</ele>
        <time>2020-02-06T06:36:12Z</time>
      </trkpt>
      <trkpt lat="59.30613" lon="18.077735">
        <ele>34</ele>
        <time>2020-02-06T06:36:13Z</time>
      </trkpt>
      <trkpt lat="59.30616" lon="18.077719">
        <ele>34</ele>
        <time>2020-02-06T06:36:14Z</time>
      </trkpt>
      <trkpt lat="59.306188" lon="18.077698">
        <ele>34</ele>
        <time>2020-02-06T06:36:15Z</time>
      </trkpt>
      <trkpt lat="59.306216" lon="18.077681">
        <ele>34</ele>
        <time>2020-02-06T06:36:16Z</time>
      </trkpt>
      <trkpt lat="59.306243" lon="18.077664">
        <ele>34</ele>
        <time>2020-02-06T06:36:17Z</time>
      </trkpt>
      <trkpt lat="59.306268" lon="18.077646">
        <ele>34</ele>
        <time>2020-02-06T06:36:18Z</time>
      </trkpt>
      <trkpt lat="59.306296" lon="18.077631">
        <ele>34</ele>
        <time>2020-02-06T06:36:19Z</time>
      </trkpt>
      <trkpt lat="59.306322" lon="18.07761">
        <ele>33</ele>
        <time>2020-02-06T06:36:20Z</time>
      </trkpt>
      <trkpt lat="59.306348" lon="18.077589">
        <ele>33</ele>
        <time>2020-02-06T06:36:21Z</time>
      </trkpt>
      <trkpt lat="59.306368" lon="18.077571">
        <ele>33</ele>
        <time>2020-02-06T06:36:22Z</time>
      </trkpt>
      <trkpt lat="59.306388" lon="18.077558">
        <ele>33</ele>
        <time>2020-02-06T06:36:23Z</time>
      </trkpt>
      <trkpt lat="59.30641" lon="18.077546">
        <ele>33</ele>
        <time>2020-02-06T06:36:24Z</time>
      </trkpt>
      <trkpt lat="59.306442" lon="18.077507">
        <ele>33</ele>
        <time>2020-02-06T06:36:26Z</time>
      </trkpt>
      <trkpt lat="59.306468" lon="18.077494">
        <ele>33</ele>
        <time>2020-02-06T06:36:27Z</time>
      </trkpt>
      <trkpt lat="59.306496" lon="18.077475">
        <ele>33</ele>
        <time>2020-02-06T06:36:28Z</time>
      </trkpt>
      <trkpt lat="59.306526" lon="18.077449">
        <ele>33</ele>
        <time>2020-02-06T06:36:29Z</time>
      </trkpt>
      <trkpt lat="59.306556" lon="18.077424">
        <ele>33</ele>
        <time>2020-02-06T06:36:30Z</time>
      </trkpt>
      <trkpt lat="59.306583" lon="18.077402">
        <ele>33</ele>
        <time>2020-02-06T06:36:31Z</time>
      </trkpt>
      <trkpt lat="59.306597" lon="18.077364">
        <ele>33</ele>
        <time>2020-02-06T06:36:32Z</time>
      </trkpt>
      <trkpt lat="59.306628" lon="18.077346">
        <ele>33</ele>
        <time>2020-02-06T06:36:33Z</time>
      </trkpt>
      <trkpt lat="59.306642" lon="18.077317">
        <ele>33</ele>
        <time>2020-02-06T06:36:34Z</time>
      </trkpt>
      <trkpt lat="59.30667" lon="18.077304">
        <ele>33</ele>
        <time>2020-02-06T06:36:35Z</time>
      </trkpt>
      <trkpt lat="59.30668" lon="18.07726">
        <ele>33</ele>
        <time>2020-02-06T06:36:36Z</time>
      </trkpt>
      <trkpt lat="59.30671" lon="18.077243">
        <ele>33</ele>
        <time>2020-02-06T06:36:37Z</time>
      </trkpt>
      <trkpt lat="59.306739" lon="18.077231">
        <ele>33</ele>
        <time>2020-02-06T06:36:38Z</time>
      </trkpt>
      <trkpt lat="59.306774" lon="18.077216">
        <ele>33</ele>
        <time>2020-02-06T06:36:39Z</time>
      </trkpt>
      <trkpt lat="59.306802" lon="18.077201">
        <ele>33</ele>
        <time>2020-02-06T06:36:40Z</time>
      </trkpt>
      <trkpt lat="59.306828" lon="18.077182">
        <ele>33</ele>
        <time>2020-02-06T06:36:41Z</time>
      </trkpt>
      <trkpt lat="59.306862" lon="18.077159">
        <ele>33</ele>
        <time>2020-02-06T06:36:42Z</time>
      </trkpt>
      <trkpt lat="59.30689" lon="18.077142">
        <ele>33</ele>
        <time>2020-02-06T06:36:43Z</time>
      </trkpt>
      <trkpt lat="59.306916" lon="18.077125">
        <ele>33</ele>
        <time>2020-02-06T06:36:44Z</time>
      </trkpt>
      <trkpt lat="59.306941" lon="18.077109">
        <ele>33</ele>
        <time>2020-02-06T06:36:45Z</time>
      </trkpt>
      <trkpt lat="59.306966" lon="18.077097">
        <ele>33</ele>
        <time>2020-02-06T06:36:46Z</time>
      </trkpt>
      <trkpt lat="59.30699" lon="18.077084">
        <ele>33</ele>
        <time>2020-02-06T06:36:47Z</time>
      </trkpt>
      <trkpt lat="59.307016" lon="18.077066">
        <ele>33</ele>
        <time>2020-02-06T06:36:48Z</time>
      </trkpt>
      <trkpt lat="59.307044" lon="18.077047">
        <ele>33</ele>
        <time>2020-02-06T06:36:49Z</time>
      </trkpt>
      <trkpt lat="59.307068" lon="18.077031">
        <ele>33</ele>
        <time>2020-02-06T06:36:50Z</time>
      </trkpt>
      <trkpt lat="59.307092" lon="18.077019">
        <ele>33</ele>
        <time>2020-02-06T06:36:51Z</time>
      </trkpt>
      <trkpt lat="59.307116" lon="18.077001">
        <ele>33</ele>
        <time>2020-02-06T06:36:52Z</time>
      </trkpt>
      <trkpt lat="59.307146" lon="18.076986">
        <ele>33</ele>
        <time>2020-02-06T06:36:53Z</time>
      </trkpt>
      <trkpt lat="59.30717" lon="18.076969">
        <ele>33</ele>
        <time>2020-02-06T06:36:54Z</time>
      </trkpt>
      <trkpt lat="59.307194" lon="18.076958">
        <ele>33</ele>
        <time>2020-02-06T06:36:55Z</time>
      </trkpt>
      <trkpt lat="59.30722" lon="18.076947">
        <ele>33</ele>
        <time>2020-02-06T06:36:56Z</time>
      </trkpt>
      <trkpt lat="59.307238" lon="18.076915">
        <ele>33</ele>
        <time>2020-02-06T06:36:57Z</time>
      </trkpt>
      <trkpt lat="59.307262" lon="18.076903">
        <ele>33</ele>
        <time>2020-02-06T06:36:58Z</time>
      </trkpt>
      <trkpt lat="59.307284" lon="18.076886">
        <ele>33</ele>
        <time>2020-02-06T06:36:59Z</time>
      </trkpt>
      <trkpt lat="59.307312" lon="18.076868">
        <ele>33</ele>
        <time>2020-02-06T06:37:00Z</time>
      </trkpt>
      <trkpt lat="59.307339" lon="18.076851">
        <ele>33</ele>
        <time>2020-02-06T06:37:01Z</time>
      </trkpt>
      <trkpt lat="59.307351" lon="18.076816">
        <ele>33</ele>
        <time>2020-02-06T06:37:02Z</time>
      </trkpt>
      <trkpt lat="59.307382" lon="18.076786">
        <ele>33</ele>
        <time>2020-02-06T06:37:03Z</time>
      </trkpt>
      <trkpt lat="59.307403" lon="18.076756">
        <ele>34</ele>
        <time>2020-02-06T06:37:04Z</time>
      </trkpt>
      <trkpt lat="59.307429" lon="18.076732">
        <ele>34</ele>
        <time>2020-02-06T06:37:05Z</time>
      </trkpt>
      <trkpt lat="59.30746" lon="18.076702">
        <ele>34</ele>
        <time>2020-02-06T06:37:06Z</time>
      </trkpt>
      <trkpt lat="59.307487" lon="18.076678">
        <ele>34</ele>
        <time>2020-02-06T06:37:07Z</time>
      </trkpt>
      <trkpt lat="59.307512" lon="18.076659">
        <ele>34</ele>
        <time>2020-02-06T06:37:08Z</time>
      </trkpt>
      <trkpt lat="59.307545" lon="18.076655">
        <ele>33</ele>
        <time>2020-02-06T06:37:09Z</time>
      </trkpt>
      <trkpt lat="59.307582" lon="18.076668">
        <ele>33</ele>
        <time>2020-02-06T06:37:10Z</time>
      </trkpt>
      <trkpt lat="59.307626" lon="18.076684">
        <ele>33</ele>
        <time>2020-02-06T06:37:11Z</time>
      </trkpt>
      <trkpt lat="59.307669" lon="18.07671">
        <ele>33</ele>
        <time>2020-02-06T06:37:12Z</time>
      </trkpt>
      <trkpt lat="59.307707" lon="18.076738">
        <ele>34</ele>
        <time>2020-02-06T06:37:13Z</time>
      </trkpt>
      <trkpt lat="59.307736" lon="18.076756">
        <ele>34</ele>
        <time>2020-02-06T06:37:14Z</time>
      </trkpt>
      <trkpt lat="59.307762" lon="18.076766">
        <ele>33</ele>
        <time>2020-02-06T06:37:15Z</time>
      </trkpt>
      <trkpt lat="59.30778" lon="18.076775">
        <ele>33</ele>
        <time>2020-02-06T06:37:16Z</time>
      </trkpt>
      <trkpt lat="59.307808" lon="18.076782">
        <ele>33</ele>
        <time>2020-02-06T06:37:18Z</time>
      </trkpt>
      <trkpt lat="59.30783" lon="18.076812">
        <ele>31</ele>
        <time>2020-02-06T06:37:27Z</time>
      </trkpt>
      <trkpt lat="59.307858" lon="18.076816">
        <ele>31</ele>
        <time>2020-02-06T06:37:30Z</time>
      </trkpt>
      <trkpt lat="59.307882" lon="18.07681">
        <ele>31</ele>
        <time>2020-02-06T06:37:31Z</time>
      </trkpt>
      <trkpt lat="59.307903" lon="18.076807">
        <ele>31</ele>
        <time>2020-02-06T06:37:32Z</time>
      </trkpt>
      <trkpt lat="59.307924" lon="18.0768">
        <ele>31</ele>
        <time>2020-02-06T06:37:33Z</time>
      </trkpt>
      <trkpt lat="59.307944" lon="18.076785">
        <ele>31</ele>
        <time>2020-02-06T06:37:34Z</time>
      </trkpt>
      <trkpt lat="59.307966" lon="18.076766">
        <ele>31</ele>
        <time>2020-02-06T06:37:35Z</time>
      </trkpt>
      <trkpt lat="59.30799" lon="18.076731">
        <ele>30</ele>
        <time>2020-02-06T06:37:36Z</time>
      </trkpt>
      <trkpt lat="59.308016" lon="18.076696">
        <ele>30</ele>
        <time>2020-02-06T06:37:37Z</time>
      </trkpt>
      <trkpt lat="59.30804" lon="18.076668">
        <ele>30</ele>
        <time>2020-02-06T06:37:38Z</time>
      </trkpt>
      <trkpt lat="59.308067" lon="18.076642">
        <ele>30</ele>
        <time>2020-02-06T06:37:39Z</time>
      </trkpt>
      <trkpt lat="59.308092" lon="18.07662">
        <ele>30</ele>
        <time>2020-02-06T06:37:40Z</time>
      </trkpt>
      <trkpt lat="59.308122" lon="18.0766">
        <ele>30</ele>
        <time>2020-02-06T06:37:41Z</time>
      </trkpt>
      <trkpt lat="59.308135" lon="18.07657">
        <ele>30</ele>
        <time>2020-02-06T06:37:42Z</time>
      </trkpt>
      <trkpt lat="59.308161" lon="18.076552">
        <ele>30</ele>
        <time>2020-02-06T06:37:43Z</time>
      </trkpt>
      <trkpt lat="59.308163" lon="18.076494">
        <ele>30</ele>
        <time>2020-02-06T06:37:44Z</time>
      </trkpt>
      <trkpt lat="59.30819" lon="18.07647">
        <ele>30</ele>
        <time>2020-02-06T06:37:45Z</time>
      </trkpt>
      <trkpt lat="59.308219" lon="18.076451">
        <ele>30</ele>
        <time>2020-02-06T06:37:46Z</time>
      </trkpt>
      <trkpt lat="59.308251" lon="18.076424">
        <ele>30</ele>
        <time>2020-02-06T06:37:47Z</time>
      </trkpt>
      <trkpt lat="59.308268" lon="18.076386">
        <ele>30</ele>
        <time>2020-02-06T06:37:48Z</time>
      </trkpt>
      <trkpt lat="59.308297" lon="18.076366">
        <ele>31</ele>
        <time>2020-02-06T06:37:49Z</time>
      </trkpt>
      <trkpt lat="59.308327" lon="18.07635">
        <ele>31</ele>
        <time>2020-02-06T06:37:50Z</time>
      </trkpt>
      <trkpt lat="59.308347" lon="18.07633">
        <ele>31</ele>
        <time>2020-02-06T06:37:51Z</time>
      </trkpt>
      <trkpt lat="59.308393" lon="18.076288">
        <ele>31</ele>
        <time>2020-02-06T06:37:53Z</time>
      </trkpt>
      <trkpt lat="59.308425" lon="18.07627">
        <ele>31</ele>
        <time>2020-02-06T06:37:54Z</time>
      </trkpt>
      <trkpt lat="59.308447" lon="18.07625">
        <ele>31</ele>
        <time>2020-02-06T06:37:55Z</time>
      </trkpt>
      <trkpt lat="59.308469" lon="18.076222">
        <ele>31</ele>
        <time>2020-02-06T06:37:56Z</time>
      </trkpt>
      <trkpt lat="59.308494" lon="18.076196">
        <ele>32</ele>
        <time>2020-02-06T06:37:57Z</time>
      </trkpt>
      <trkpt lat="59.308517" lon="18.076161">
        <ele>32</ele>
        <time>2020-02-06T06:37:58Z</time>
      </trkpt>
      <trkpt lat="59.308538" lon="18.076142">
        <ele>32</ele>
        <time>2020-02-06T06:37:59Z</time>
      </trkpt>
      <trkpt lat="59.308555" lon="18.076122">
        <ele>32</ele>
        <time>2020-02-06T06:38:00Z</time>
      </trkpt>
      <trkpt lat="59.308581" lon="18.076108">
        <ele>32</ele>
        <time>2020-02-06T06:38:01Z</time>
      </trkpt>
      <trkpt lat="59.308612" lon="18.076084">
        <ele>33</ele>
        <time>2020-02-06T06:38:02Z</time>
      </trkpt>
      <trkpt lat="59.308642" lon="18.07605">
        <ele>33</ele>
        <time>2020-02-06T06:38:03Z</time>
      </trkpt>
      <trkpt lat="59.308665" lon="18.076011">
        <ele>33</ele>
        <time>2020-02-06T06:38:04Z</time>
      </trkpt>
      <trkpt lat="59.308687" lon="18.075975">
        <ele>33</ele>
        <time>2020-02-06T06:38:05Z</time>
      </trkpt>
      <trkpt lat="59.30871" lon="18.07594">
        <ele>34</ele>
        <time>2020-02-06T06:38:06Z</time>
      </trkpt>
      <trkpt lat="59.308733" lon="18.075918">
        <ele>34</ele>
        <time>2020-02-06T06:38:07Z</time>
      </trkpt>
      <trkpt lat="59.308754" lon="18.075902">
        <ele>34</ele>
        <time>2020-02-06T06:38:08Z</time>
      </trkpt>
      <trkpt lat="59.308851" lon="18.075808">
        <ele>34</ele>
        <time>2020-02-06T06:38:12Z</time>
      </trkpt>
      <trkpt lat="59.308885" lon="18.075783">
        <ele>34</ele>
        <time>2020-02-06T06:38:13Z</time>
      </trkpt>
      <trkpt lat="59.308973" lon="18.075674">
        <ele>34</ele>
        <time>2020-02-06T06:38:16Z</time>
      </trkpt>
      <trkpt lat="59.30907" lon="18.075597">
        <ele>35</ele>
        <time>2020-02-06T06:38:19Z</time>
      </trkpt>
      <trkpt lat="59.30917" lon="18.075531">
        <ele>36</ele>
        <time>2020-02-06T06:38:23Z</time>
      </trkpt>
      <trkpt lat="59.309279" lon="18.075483">
        <ele>37</ele>
        <time>2020-02-06T06:38:27Z</time>
      </trkpt>
      <trkpt lat="59.309301" lon="18.07548">
        <ele>38</ele>
        <time>2020-02-06T06:38:28Z</time>
      </trkpt>
      <trkpt lat="59.309321" lon="18.075468">
        <ele>38</ele>
        <time>2020-02-06T06:38:29Z</time>
      </trkpt>
      <trkpt lat="59.309342" lon="18.075454">
        <ele>38</ele>
        <time>2020-02-06T06:38:30Z</time>
      </trkpt>
      <trkpt lat="59.309362" lon="18.075461">
        <ele>38</ele>
        <time>2020-02-06T06:38:31Z</time>
      </trkpt>
      <trkpt lat="59.30938" lon="18.07547">
        <ele>38</ele>
        <time>2020-02-06T06:38:32Z</time>
      </trkpt>
      <trkpt lat="59.309406" lon="18.075483">
        <ele>38</ele>
        <time>2020-02-06T06:38:34Z</time>
      </trkpt>
      <trkpt lat="59.309439" lon="18.07548">
        <ele>38</ele>
        <time>2020-02-06T06:38:36Z</time>
      </trkpt>
      <trkpt lat="59.309461" lon="18.075463">
        <ele>38</ele>
        <time>2020-02-06T06:38:37Z</time>
      </trkpt>
      <trkpt lat="59.309486" lon="18.075443">
        <ele>38</ele>
        <time>2020-02-06T06:38:38Z</time>
      </trkpt>
      <trkpt lat="59.309511" lon="18.075427">
        <ele>38</ele>
        <time>2020-02-06T06:38:39Z</time>
      </trkpt>
      <trkpt lat="59.309536" lon="18.075409">
        <ele>38</ele>
        <time>2020-02-06T06:38:40Z</time>
      </trkpt>
      <trkpt lat="59.309563" lon="18.075383">
        <ele>38</ele>
        <time>2020-02-06T06:38:41Z</time>
      </trkpt>
      <trkpt lat="59.309589" lon="18.075358">
        <ele>38</ele>
        <time>2020-02-06T06:38:42Z</time>
      </trkpt>
      <trkpt lat="59.309612" lon="18.075336">
        <ele>38</ele>
        <time>2020-02-06T06:38:43Z</time>
      </trkpt>
      <trkpt lat="59.309635" lon="18.075326">
        <ele>38</ele>
        <time>2020-02-06T06:38:44Z</time>
      </trkpt>
      <trkpt lat="59.309722" lon="18.07528">
        <ele>39</ele>
        <time>2020-02-06T06:38:47Z</time>
      </trkpt>
      <trkpt lat="59.309809" lon="18.075222">
        <ele>39</ele>
        <time>2020-02-06T06:38:50Z</time>
      </trkpt>
      <trkpt lat="59.309843" lon="18.075206">
        <ele>40</ele>
        <time>2020-02-06T06:38:51Z</time>
      </trkpt>
      <trkpt lat="59.309877" lon="18.075193">
        <ele>40</ele>
        <time>2020-02-06T06:38:52Z</time>
      </trkpt>
      <trkpt lat="59.309934" lon="18.075166">
        <ele>40</ele>
        <time>2020-02-06T06:38:54Z</time>
      </trkpt>
      <trkpt lat="59.309964" lon="18.075148">
        <ele>41</ele>
        <time>2020-02-06T06:38:55Z</time>
      </trkpt>
      <trkpt lat="59.309994" lon="18.075137">
        <ele>40</ele>
        <time>2020-02-06T06:38:56Z</time>
      </trkpt>
      <trkpt lat="59.310019" lon="18.075118">
        <ele>40</ele>
        <time>2020-02-06T06:38:57Z</time>
      </trkpt>
      <trkpt lat="59.310045" lon="18.075104">
        <ele>40</ele>
        <time>2020-02-06T06:38:58Z</time>
      </trkpt>
      <trkpt lat="59.310075" lon="18.075091">
        <ele>41</ele>
        <time>2020-02-06T06:38:59Z</time>
      </trkpt>
      <trkpt lat="59.310128" lon="18.075057">
        <ele>40</ele>
        <time>2020-02-06T06:39:01Z</time>
      </trkpt>
      <trkpt lat="59.31021" lon="18.075002">
        <ele>41</ele>
        <time>2020-02-06T06:39:04Z</time>
      </trkpt>
      <trkpt lat="59.310235" lon="18.07498">
        <ele>41</ele>
        <time>2020-02-06T06:39:05Z</time>
      </trkpt>
      <trkpt lat="59.310256" lon="18.074965">
        <ele>41</ele>
        <time>2020-02-06T06:39:06Z</time>
      </trkpt>
      <trkpt lat="59.310281" lon="18.074952">
        <ele>41</ele>
        <time>2020-02-06T06:39:07Z</time>
      </trkpt>
      <trkpt lat="59.310378" lon="18.074893">
        <ele>40</ele>
        <time>2020-02-06T06:39:11Z</time>
      </trkpt>
      <trkpt lat="59.310407" lon="18.0749">
        <ele>40</ele>
        <time>2020-02-06T06:39:12Z</time>
      </trkpt>
      <trkpt lat="59.310428" lon="18.074907">
        <ele>40</ele>
        <time>2020-02-06T06:39:13Z</time>
      </trkpt>
      <trkpt lat="59.310447" lon="18.07493">
        <ele>39</ele>
        <time>2020-02-06T06:39:14Z</time>
      </trkpt>
      <trkpt lat="59.310462" lon="18.074955">
        <ele>39</ele>
        <time>2020-02-06T06:39:15Z</time>
      </trkpt>
      <trkpt lat="59.310483" lon="18.074979">
        <ele>39</ele>
        <time>2020-02-06T06:39:16Z</time>
      </trkpt>
      <trkpt lat="59.310509" lon="18.075006">
        <ele>39</ele>
        <time>2020-02-06T06:39:17Z</time>
      </trkpt>
      <trkpt lat="59.310617" lon="18.07495">
        <ele>39</ele>
        <time>2020-02-06T06:39:21Z</time>
      </trkpt>
      <trkpt lat="59.310708" lon="18.074869">
        <ele>39</ele>
        <time>2020-02-06T06:39:24Z</time>
      </trkpt>
      <trkpt lat="59.31079" lon="18.074792">
        <ele>39</ele>
        <time>2020-02-06T06:39:27Z</time>
      </trkpt>
      <trkpt lat="59.310887" lon="18.074738">
        <ele>40</ele>
        <time>2020-02-06T06:39:31Z</time>
      </trkpt>
      <trkpt lat="59.310989" lon="18.07468">
        <ele>41</ele>
        <time>2020-02-06T06:39:35Z</time>
      </trkpt>
      <trkpt lat="59.311076" lon="18.074632">
        <ele>42</ele>
        <time>2020-02-06T06:39:39Z</time>
      </trkpt>
      <trkpt lat="59.311173" lon="18.074578">
        <ele>44</ele>
        <time>2020-02-06T06:39:43Z</time>
      </trkpt>
      <trkpt lat="59.311199" lon="18.074556">
        <ele>44</ele>
        <time>2020-02-06T06:39:44Z</time>
      </trkpt>
      <trkpt lat="59.311279" lon="18.074465">
        <ele>45</ele>
        <time>2020-02-06T06:39:48Z</time>
      </trkpt>
      <trkpt lat="59.31137" lon="18.07436">
        <ele>45</ele>
        <time>2020-02-06T06:39:52Z</time>
      </trkpt>
      <trkpt lat="59.311479" lon="18.074357">
        <ele>47</ele>
        <time>2020-02-06T06:39:56Z</time>
      </trkpt>
      <trkpt lat="59.311575" lon="18.074381">
        <ele>47</ele>
        <time>2020-02-06T06:39:59Z</time>
      </trkpt>
      <trkpt lat="59.311667" lon="18.074299">
        <ele>48</ele>
        <time>2020-02-06T06:40:02Z</time>
      </trkpt>
      <trkpt lat="59.311775" lon="18.074261">
        <ele>48</ele>
        <time>2020-02-06T06:40:07Z</time>
      </trkpt>
      <trkpt lat="59.311851" lon="18.074088">
        <ele>50</ele>
        <time>2020-02-06T06:40:11Z</time>
      </trkpt>
      <trkpt lat="59.311947" lon="18.073981">
        <ele>52</ele>
        <time>2020-02-06T06:40:14Z</time>
      </trkpt>
      <trkpt lat="59.312039" lon="18.073929">
        <ele>52</ele>
        <time>2020-02-06T06:40:20Z</time>
      </trkpt>
      <trkpt lat="59.312133" lon="18.073949">
        <ele>52</ele>
        <time>2020-02-06T06:40:25Z</time>
      </trkpt>
      <trkpt lat="59.312238" lon="18.073878">
        <ele>51</ele>
        <time>2020-02-06T06:40:28Z</time>
      </trkpt>
      <trkpt lat="59.312327" lon="18.073841">
        <ele>51</ele>
        <time>2020-02-06T06:40:30Z</time>
      </trkpt>
      <trkpt lat="59.312439" lon="18.073796">
        <ele>51</ele>
        <time>2020-02-06T06:40:33Z</time>
      </trkpt>
      <trkpt lat="59.312518" lon="18.073798">
        <ele>52</ele>
        <time>2020-02-06T06:40:35Z</time>
      </trkpt>
      <trkpt lat="59.312553" lon="18.0738">
        <ele>52</ele>
        <time>2020-02-06T06:40:36Z</time>
      </trkpt>
      <trkpt lat="59.312583" lon="18.073787">
        <ele>52</ele>
        <time>2020-02-06T06:40:37Z</time>
      </trkpt>
      <trkpt lat="59.312613" lon="18.073771">
        <ele>52</ele>
        <time>2020-02-06T06:40:38Z</time>
      </trkpt>
      <trkpt lat="59.312635" lon="18.073757">
        <ele>52</ele>
        <time>2020-02-06T06:40:39Z</time>
      </trkpt>
      <trkpt lat="59.312657" lon="18.07374">
        <ele>52</ele>
        <time>2020-02-06T06:40:40Z</time>
      </trkpt>
      <trkpt lat="59.312678" lon="18.073732">
        <ele>52</ele>
        <time>2020-02-06T06:40:41Z</time>
      </trkpt>
      <trkpt lat="59.312711" lon="18.073696">
        <ele>52</ele>
        <time>2020-02-06T06:40:43Z</time>
      </trkpt>
      <trkpt lat="59.312734" lon="18.073654">
        <ele>51</ele>
        <time>2020-02-06T06:40:45Z</time>
      </trkpt>
      <trkpt lat="59.312752" lon="18.073624">
        <ele>51</ele>
        <time>2020-02-06T06:40:47Z</time>
      </trkpt>
      <trkpt lat="59.312782" lon="18.073666">
        <ele>50</ele>
        <time>2020-02-06T06:40:49Z</time>
      </trkpt>
      <trkpt lat="59.312948" lon="18.073985">
        <ele>50</ele>
        <time>2020-02-06T06:40:52Z</time>
      </trkpt>
      <trkpt lat="59.313039" lon="18.073816">
        <ele>51</ele>
        <time>2020-02-06T06:40:55Z</time>
      </trkpt>
      <trkpt lat="59.313128" lon="18.073712">
        <ele>51</ele>
        <time>2020-02-06T06:40:59Z</time>
      </trkpt>
      <trkpt lat="59.313219" lon="18.07363">
        <ele>52</ele>
        <time>2020-02-06T06:41:04Z</time>
      </trkpt>
      <trkpt lat="59.313324" lon="18.073564">
        <ele>52</ele>
        <time>2020-02-06T06:41:10Z</time>
      </trkpt>
      <trkpt lat="59.313422" lon="18.073656">
        <ele>51</ele>
        <time>2020-02-06T06:41:13Z</time>
      </trkpt>
      <trkpt lat="59.313521" lon="18.073623">
        <ele>51</ele>
        <time>2020-02-06T06:41:16Z</time>
      </trkpt>
      <trkpt lat="59.313611" lon="18.073558">
        <ele>51</ele>
        <time>2020-02-06T06:41:19Z</time>
      </trkpt>
      <trkpt lat="59.313705" lon="18.073484">
        <ele>51</ele>
        <time>2020-02-06T06:41:23Z</time>
      </trkpt>
      <trkpt lat="59.313805" lon="18.073444">
        <ele>51</ele>
        <time>2020-02-06T06:41:26Z</time>
      </trkpt>
      <trkpt lat="59.313917" lon="18.073386">
        <ele>51</ele>
        <time>2020-02-06T06:41:30Z</time>
      </trkpt>
      <trkpt lat="59.313999" lon="18.073295">
        <ele>50</ele>
        <time>2020-02-06T06:41:34Z</time>
      </trkpt>
      <trkpt lat="59.314125" lon="18.073336">
        <ele>50</ele>
        <time>2020-02-06T06:41:38Z</time>
      </trkpt>
      <trkpt lat="59.314226" lon="18.073384">
        <ele>49</ele>
        <time>2020-02-06T06:41:41Z</time>
      </trkpt>
      <trkpt lat="59.31427" lon="18.073366">
        <ele>49</ele>
        <time>2020-02-06T06:41:43Z</time>
      </trkpt>
      <trkpt lat="59.314298" lon="18.07335">
        <ele>49</ele>
        <time>2020-02-06T06:41:44Z</time>
      </trkpt>
      <trkpt lat="59.314325" lon="18.073336">
        <ele>50</ele>
        <time>2020-02-06T06:41:45Z</time>
      </trkpt>
      <trkpt lat="59.314351" lon="18.073319">
        <ele>49</ele>
        <time>2020-02-06T06:41:46Z</time>
      </trkpt>
      <trkpt lat="59.314441" lon="18.073207">
        <ele>49</ele>
        <time>2020-02-06T06:41:50Z</time>
      </trkpt>
      <trkpt lat="59.314541" lon="18.073106">
        <ele>49</ele>
        <time>2020-02-06T06:41:53Z</time>
      </trkpt>
      <trkpt lat="59.314636" lon="18.072992">
        <ele>49</ele>
        <time>2020-02-06T06:41:57Z</time>
      </trkpt>
      <trkpt lat="59.314758" lon="18.073004">
        <ele>49</ele>
        <time>2020-02-06T06:42:00Z</time>
      </trkpt>
      <trkpt lat="59.314864" lon="18.072984">
        <ele>50</ele>
        <time>2020-02-06T06:42:03Z</time>
      </trkpt>
      <trkpt lat="59.31496" lon="18.072976">
        <ele>50</ele>
        <time>2020-02-06T06:42:06Z</time>
      </trkpt>
      <trkpt lat="59.315052" lon="18.073">
        <ele>49</ele>
        <time>2020-02-06T06:42:09Z</time>
      </trkpt>
      <trkpt lat="59.315117" lon="18.073016">
        <ele>48</ele>
        <time>2020-02-06T06:42:11Z</time>
      </trkpt>
      <trkpt lat="59.315151" lon="18.07303">
        <ele>48</ele>
        <time>2020-02-06T06:42:12Z</time>
      </trkpt>
      <trkpt lat="59.315182" lon="18.07303">
        <ele>47</ele>
        <time>2020-02-06T06:42:13Z</time>
      </trkpt>
      <trkpt lat="59.31521" lon="18.073032">
        <ele>47</ele>
        <time>2020-02-06T06:42:14Z</time>
      </trkpt>
      <trkpt lat="59.315244" lon="18.073033">
        <ele>46</ele>
        <time>2020-02-06T06:42:15Z</time>
      </trkpt>
      <trkpt lat="59.315268" lon="18.07303">
        <ele>46</ele>
        <time>2020-02-06T06:42:16Z</time>
      </trkpt>
      <trkpt lat="59.315299" lon="18.073026">
        <ele>45</ele>
        <time>2020-02-06T06:42:17Z</time>
      </trkpt>
      <trkpt lat="59.315321" lon="18.073018">
        <ele>45</ele>
        <time>2020-02-06T06:42:18Z</time>
      </trkpt>
      <trkpt lat="59.315347" lon="18.073006">
        <ele>45</ele>
        <time>2020-02-06T06:42:19Z</time>
      </trkpt>
      <trkpt lat="59.315371" lon="18.07299">
        <ele>45</ele>
        <time>2020-02-06T06:42:20Z</time>
      </trkpt>
      <trkpt lat="59.31539" lon="18.072974">
        <ele>44</ele>
        <time>2020-02-06T06:42:21Z</time>
      </trkpt>
      <trkpt lat="59.315414" lon="18.072957">
        <ele>44</ele>
        <time>2020-02-06T06:42:22Z</time>
      </trkpt>
      <trkpt lat="59.315437" lon="18.07294">
        <ele>44</ele>
        <time>2020-02-06T06:42:23Z</time>
      </trkpt>
      <trkpt lat="59.315463" lon="18.072928">
        <ele>43</ele>
        <time>2020-02-06T06:42:24Z</time>
      </trkpt>
      <trkpt lat="59.315487" lon="18.072916">
        <ele>43</ele>
        <time>2020-02-06T06:42:25Z</time>
      </trkpt>
      <trkpt lat="59.31551" lon="18.072898">
        <ele>43</ele>
        <time>2020-02-06T06:42:26Z</time>
      </trkpt>
      <trkpt lat="59.315535" lon="18.072874">
        <ele>43</ele>
        <time>2020-02-06T06:42:27Z</time>
      </trkpt>
      <trkpt lat="59.31555" lon="18.072842">
        <ele>43</ele>
        <time>2020-02-06T06:42:28Z</time>
      </trkpt>
      <trkpt lat="59.315577" lon="18.072824">
        <ele>42</ele>
        <time>2020-02-06T06:42:29Z</time>
      </trkpt>
      <trkpt lat="59.315604" lon="18.072808">
        <ele>42</ele>
        <time>2020-02-06T06:42:30Z</time>
      </trkpt>
      <trkpt lat="59.31563" lon="18.072794">
        <ele>42</ele>
        <time>2020-02-06T06:42:31Z</time>
      </trkpt>
      <trkpt lat="59.315654" lon="18.072784">
        <ele>42</ele>
        <time>2020-02-06T06:42:32Z</time>
      </trkpt>
      <trkpt lat="59.31568" lon="18.072767">
        <ele>42</ele>
        <time>2020-02-06T06:42:33Z</time>
      </trkpt>
      <trkpt lat="59.315703" lon="18.072742">
        <ele>42</ele>
        <time>2020-02-06T06:42:34Z</time>
      </trkpt>
      <trkpt lat="59.315729" lon="18.072722">
        <ele>42</ele>
        <time>2020-02-06T06:42:35Z</time>
      </trkpt>
      <trkpt lat="59.315799" lon="18.07262">
        <ele>42</ele>
        <time>2020-02-06T06:42:39Z</time>
      </trkpt>
      <trkpt lat="59.315869" lon="18.072445">
        <ele>42</ele>
        <time>2020-02-06T06:42:45Z</time>
      </trkpt>
      <trkpt lat="59.315948" lon="18.072318">
        <ele>42</ele>
        <time>2020-02-06T06:42:50Z</time>
      </trkpt>
      <trkpt lat="59.316037" lon="18.072276">
        <ele>42</ele>
        <time>2020-02-06T06:42:54Z</time>
      </trkpt>
      <trkpt lat="59.316135" lon="18.072194">
        <ele>43</ele>
        <time>2020-02-06T06:42:58Z</time>
      </trkpt>
      <trkpt lat="59.31622" lon="18.07213">
        <ele>43</ele>
        <time>2020-02-06T06:43:02Z</time>
      </trkpt>
      <trkpt lat="59.316317" lon="18.072063">
        <ele>44</ele>
        <time>2020-02-06T06:43:08Z</time>
      </trkpt>
      <trkpt lat="59.316422" lon="18.072123">
        <ele>42</ele>
        <time>2020-02-06T06:43:11Z</time>
      </trkpt>
      <trkpt lat="59.316516" lon="18.072125">
        <ele>41</ele>
        <time>2020-02-06T06:43:16Z</time>
      </trkpt>
      <trkpt lat="59.316602" lon="18.072068">
        <ele>42</ele>
        <time>2020-02-06T06:43:19Z</time>
      </trkpt>
      <trkpt lat="59.316705" lon="18.072007">
        <ele>42</ele>
        <time>2020-02-06T06:43:22Z</time>
      </trkpt>
      <trkpt lat="59.316808" lon="18.071939">
        <ele>43</ele>
        <time>2020-02-06T06:43:25Z</time>
      </trkpt>
      <trkpt lat="59.316903" lon="18.071836">
        <ele>43</ele>
        <time>2020-02-06T06:43:30Z</time>
      </trkpt>
      <trkpt lat="59.316996" lon="18.071768">
        <ele>44</ele>
        <time>2020-02-06T06:43:34Z</time>
      </trkpt>
      <trkpt lat="59.317086" lon="18.071744">
        <ele>44</ele>
        <time>2020-02-06T06:43:38Z</time>
      </trkpt>
      <trkpt lat="59.317183" lon="18.071664">
        <ele>44</ele>
        <time>2020-02-06T06:43:43Z</time>
      </trkpt>
      <trkpt lat="59.317279" lon="18.071587">
        <ele>45</ele>
        <time>2020-02-06T06:43:47Z</time>
      </trkpt>
      <trkpt lat="59.317369" lon="18.071521">
        <ele>44</ele>
        <time>2020-02-06T06:43:50Z</time>
      </trkpt>
      <trkpt lat="59.317483" lon="18.0715">
        <ele>44</ele>
        <time>2020-02-06T06:43:53Z</time>
      </trkpt>
      <trkpt lat="59.317578" lon="18.071494">
        <ele>44</ele>
        <time>2020-02-06T06:43:55Z</time>
      </trkpt>
      <trkpt lat="59.317683" lon="18.071453">
        <ele>45</ele>
        <time>2020-02-06T06:43:58Z</time>
      </trkpt>
      <trkpt lat="59.3178" lon="18.071466">
        <ele>44</ele>
        <time>2020-02-06T06:44:02Z</time>
      </trkpt>
      <trkpt lat="59.317917" lon="18.071468">
        <ele>44</ele>
        <time>2020-02-06T06:44:06Z</time>
      </trkpt>
      <trkpt lat="59.318012" lon="18.07143">
        <ele>45</ele>
        <time>2020-02-06T06:44:09Z</time>
      </trkpt>
      <trkpt lat="59.318099" lon="18.071367">
        <ele>45</ele>
        <time>2020-02-06T06:44:13Z</time>
      </trkpt>
      <trkpt lat="59.318196" lon="18.071281">
        <ele>45</ele>
        <time>2020-02-06T06:44:17Z</time>
      </trkpt>
      <trkpt lat="59.318306" lon="18.071264">
        <ele>45</ele>
        <time>2020-02-06T06:44:20Z</time>
      </trkpt>
      <trkpt lat="59.318404" lon="18.07118">
        <ele>46</ele>
        <time>2020-02-06T06:44:25Z</time>
      </trkpt>
      <trkpt lat="59.318485" lon="18.071096">
        <ele>45</ele>
        <time>2020-02-06T06:44:29Z</time>
      </trkpt>
      <trkpt lat="59.318575" lon="18.071101">
        <ele>44</ele>
        <time>2020-02-06T06:44:32Z</time>
      </trkpt>
      <trkpt lat="59.318666" lon="18.07109">
        <ele>45</ele>
        <time>2020-02-06T06:44:35Z</time>
      </trkpt>
      <trkpt lat="59.318763" lon="18.071048">
        <ele>45</ele>
        <time>2020-02-06T06:44:40Z</time>
      </trkpt>
      <trkpt lat="59.318873" lon="18.070998">
        <ele>45</ele>
        <time>2020-02-06T06:44:43Z</time>
      </trkpt>
      <trkpt lat="59.31897" lon="18.07096">
        <ele>44</ele>
        <time>2020-02-06T06:44:46Z</time>
      </trkpt>
      <trkpt lat="59.319085" lon="18.070952">
        <ele>44</ele>
        <time>2020-02-06T06:44:50Z</time>
      </trkpt>
      <trkpt lat="59.319184" lon="18.070932">
        <ele>44</ele>
        <time>2020-02-06T06:44:53Z</time>
      </trkpt>
      <trkpt lat="59.319291" lon="18.070876">
        <ele>43</ele>
        <time>2020-02-06T06:44:56Z</time>
      </trkpt>
      <trkpt lat="59.319387" lon="18.07083">
        <ele>43</ele>
        <time>2020-02-06T06:45:00Z</time>
      </trkpt>
      <trkpt lat="59.319467" lon="18.070722">
        <ele>43</ele>
        <time>2020-02-06T06:45:04Z</time>
      </trkpt>
      <trkpt lat="59.319557" lon="18.070644">
        <ele>42</ele>
        <time>2020-02-06T06:45:06Z</time>
      </trkpt>
      <trkpt lat="59.31965" lon="18.070551">
        <ele>42</ele>
        <time>2020-02-06T06:45:08Z</time>
      </trkpt>
      <trkpt lat="59.319764" lon="18.070483">
        <ele>42</ele>
        <time>2020-02-06T06:45:11Z</time>
      </trkpt>
      <trkpt lat="59.31987" lon="18.070483">
        <ele>41</ele>
        <time>2020-02-06T06:45:15Z</time>
      </trkpt>
      <trkpt lat="59.319971" lon="18.070504">
        <ele>36</ele>
        <time>2020-02-06T06:45:21Z</time>
      </trkpt>
      <trkpt lat="59.320047" lon="18.07066">
        <ele>33</ele>
        <time>2020-02-06T06:45:25Z</time>
      </trkpt>
      <trkpt lat="59.320119" lon="18.070822">
        <ele>32</ele>
        <time>2020-02-06T06:45:29Z</time>
      </trkpt>
      <trkpt lat="59.320201" lon="18.070937">
        <ele>31</ele>
        <time>2020-02-06T06:45:32Z</time>
      </trkpt>
      <trkpt lat="59.320236" lon="18.070978">
        <ele>31</ele>
        <time>2020-02-06T06:45:33Z</time>
      </trkpt>
      <trkpt lat="59.320262" lon="18.071013">
        <ele>31</ele>
        <time>2020-02-06T06:45:34Z</time>
      </trkpt>
      <trkpt lat="59.320297" lon="18.07119">
        <ele>30</ele>
        <time>2020-02-06T06:45:37Z</time>
      </trkpt>
      <trkpt lat="59.320328" lon="18.07138">
        <ele>29</ele>
        <time>2020-02-06T06:45:41Z</time>
      </trkpt>
      <trkpt lat="59.320417" lon="18.071501">
        <ele>28</ele>
        <time>2020-02-06T06:45:45Z</time>
      </trkpt>
      <trkpt lat="59.320515" lon="18.071536">
        <ele>28</ele>
        <time>2020-02-06T06:45:48Z</time>
      </trkpt>
      <trkpt lat="59.320613" lon="18.071546">
        <ele>27</ele>
        <time>2020-02-06T06:45:51Z</time>
      </trkpt>
      <trkpt lat="59.320647" lon="18.071541">
        <ele>27</ele>
        <time>2020-02-06T06:45:52Z</time>
      </trkpt>
      <trkpt lat="59.320771" lon="18.071571">
        <ele>27</ele>
        <time>2020-02-06T06:45:56Z</time>
      </trkpt>
      <trkpt lat="59.320852" lon="18.071682">
        <ele>26</ele>
        <time>2020-02-06T06:45:59Z</time>
      </trkpt>
      <trkpt lat="59.320898" lon="18.071873">
        <ele>25</ele>
        <time>2020-02-06T06:46:02Z</time>
      </trkpt>
      <trkpt lat="59.32092" lon="18.072032">
        <ele>23</ele>
        <time>2020-02-06T06:46:05Z</time>
      </trkpt>
      <trkpt lat="59.320926" lon="18.072078">
        <ele>22</ele>
        <time>2020-02-06T06:46:06Z</time>
      </trkpt>
      <trkpt lat="59.32094" lon="18.072121">
        <ele>22</ele>
        <time>2020-02-06T06:46:07Z</time>
      </trkpt>
      <trkpt lat="59.320953" lon="18.072161">
        <ele>21</ele>
        <time>2020-02-06T06:46:08Z</time>
      </trkpt>
      <trkpt lat="59.320989" lon="18.072219">
        <ele>21</ele>
        <time>2020-02-06T06:46:10Z</time>
      </trkpt>
      <trkpt lat="59.321038" lon="18.072274">
        <ele>21</ele>
        <time>2020-02-06T06:46:12Z</time>
      </trkpt>
      <trkpt lat="59.321122" lon="18.072328">
        <ele>21</ele>
        <time>2020-02-06T06:46:15Z</time>
      </trkpt>
      <trkpt lat="59.321238" lon="18.07241">
        <ele>20</ele>
        <time>2020-02-06T06:46:19Z</time>
      </trkpt>
      <trkpt lat="59.321348" lon="18.072491">
        <ele>19</ele>
        <time>2020-02-06T06:46:23Z</time>
      </trkpt>
      <trkpt lat="59.321448" lon="18.072566">
        <ele>18</ele>
        <time>2020-02-06T06:46:27Z</time>
      </trkpt>
      <trkpt lat="59.321469" lon="18.072577">
        <ele>18</ele>
        <time>2020-02-06T06:46:28Z</time>
      </trkpt>
      <trkpt lat="59.321491" lon="18.072597">
        <ele>18</ele>
        <time>2020-02-06T06:46:29Z</time>
      </trkpt>
      <trkpt lat="59.321595" lon="18.072656">
        <ele>17</ele>
        <time>2020-02-06T06:46:33Z</time>
      </trkpt>
      <trkpt lat="59.321704" lon="18.072708">
        <ele>15</ele>
        <time>2020-02-06T06:46:37Z</time>
      </trkpt>
      <trkpt lat="59.321813" lon="18.072769">
        <ele>14</ele>
        <time>2020-02-06T06:46:41Z</time>
      </trkpt>
      <trkpt lat="59.321909" lon="18.072799">
        <ele>13</ele>
        <time>2020-02-06T06:46:45Z</time>
      </trkpt>
      <trkpt lat="59.321998" lon="18.072944">
        <ele>13</ele>
        <time>2020-02-06T06:46:50Z</time>
      </trkpt>
      <trkpt lat="59.321999" lon="18.073177">
        <ele>12</ele>
        <time>2020-02-06T06:46:54Z</time>
      </trkpt>
      <trkpt lat="59.321984" lon="18.073368">
        <ele>12</ele>
        <time>2020-02-06T06:46:57Z</time>
      </trkpt>
      <trkpt lat="59.321976" lon="18.073551">
        <ele>12</ele>
        <time>2020-02-06T06:47:00Z</time>
      </trkpt>
      <trkpt lat="59.321955" lon="18.07373">
        <ele>12</ele>
        <time>2020-02-06T06:47:03Z</time>
      </trkpt>
      <trkpt lat="59.321963" lon="18.073923">
        <ele>11</ele>
        <time>2020-02-06T06:47:07Z</time>
      </trkpt>
      <trkpt lat="59.322059" lon="18.07404">
        <ele>11</ele>
        <time>2020-02-06T06:47:10Z</time>
      </trkpt>
      <trkpt lat="59.32209" lon="18.074066">
        <ele>11</ele>
        <time>2020-02-06T06:47:11Z</time>
      </trkpt>
      <trkpt lat="59.322191" lon="18.07416">
        <ele>11</ele>
        <time>2020-02-06T06:47:15Z</time>
      </trkpt>
      <trkpt lat="59.322276" lon="18.074237">
        <ele>11</ele>
        <time>2020-02-06T06:47:18Z</time>
      </trkpt>
      <trkpt lat="59.322386" lon="18.074321">
        <ele>11</ele>
        <time>2020-02-06T06:47:22Z</time>
      </trkpt>
      <trkpt lat="59.322488" lon="18.074412">
        <ele>11</ele>
        <time>2020-02-06T06:47:26Z</time>
      </trkpt>
      <trkpt lat="59.322595" lon="18.074484">
        <ele>11</ele>
        <time>2020-02-06T06:47:30Z</time>
      </trkpt>
      <trkpt lat="59.322693" lon="18.074597">
        <ele>11</ele>
        <time>2020-02-06T06:47:35Z</time>
      </trkpt>
      <trkpt lat="59.322777" lon="18.074695">
        <ele>11</ele>
        <time>2020-02-06T06:47:38Z</time>
      </trkpt>
      <trkpt lat="59.322861" lon="18.074787">
        <ele>12</ele>
        <time>2020-02-06T06:47:41Z</time>
      </trkpt>
      <trkpt lat="59.322956" lon="18.074903">
        <ele>12</ele>
        <time>2020-02-06T06:47:45Z</time>
      </trkpt>
      <trkpt lat="59.32306" lon="18.075018">
        <ele>12</ele>
        <time>2020-02-06T06:47:49Z</time>
      </trkpt>
      <trkpt lat="59.323148" lon="18.075092">
        <ele>13</ele>
        <time>2020-02-06T06:47:52Z</time>
      </trkpt>
      <trkpt lat="59.323262" lon="18.075153">
        <ele>13</ele>
        <time>2020-02-06T06:47:56Z</time>
      </trkpt>
      <trkpt lat="59.323349" lon="18.075228">
        <ele>13</ele>
        <time>2020-02-06T06:47:59Z</time>
      </trkpt>
      <trkpt lat="59.323448" lon="18.075231">
        <ele>13</ele>
        <time>2020-02-06T06:48:03Z</time>
      </trkpt>
      <trkpt lat="59.323552" lon="18.075232">
        <ele>14</ele>
        <time>2020-02-06T06:48:07Z</time>
      </trkpt>
      <trkpt lat="59.323667" lon="18.075293">
        <ele>14</ele>
        <time>2020-02-06T06:48:11Z</time>
      </trkpt>
      <trkpt lat="59.32378" lon="18.075299">
        <ele>14</ele>
        <time>2020-02-06T06:48:15Z</time>
      </trkpt>
      <trkpt lat="59.323892" lon="18.075351">
        <ele>14</ele>
        <time>2020-02-06T06:48:19Z</time>
      </trkpt>
      <trkpt lat="59.323985" lon="18.075363">
        <ele>14</ele>
        <time>2020-02-06T06:48:23Z</time>
      </trkpt>
      <trkpt lat="59.324079" lon="18.075359">
        <ele>14</ele>
        <time>2020-02-06T06:48:27Z</time>
      </trkpt>
      <trkpt lat="59.324175" lon="18.075412">
        <ele>14</ele>
        <time>2020-02-06T06:48:31Z</time>
      </trkpt>
      <trkpt lat="59.324271" lon="18.075466">
        <ele>15</ele>
        <time>2020-02-06T06:48:35Z</time>
      </trkpt>
      <trkpt lat="59.324373" lon="18.075497">
        <ele>15</ele>
        <time>2020-02-06T06:48:39Z</time>
      </trkpt>
      <trkpt lat="59.324475" lon="18.075504">
        <ele>14</ele>
        <time>2020-02-06T06:48:44Z</time>
      </trkpt>
      <trkpt lat="59.324574" lon="18.075514">
        <ele>14</ele>
        <time>2020-02-06T06:48:48Z</time>
      </trkpt>
      <trkpt lat="59.324665" lon="18.075512">
        <ele>13</ele>
        <time>2020-02-06T06:48:52Z</time>
      </trkpt>
      <trkpt lat="59.32476" lon="18.075554">
        <ele>11</ele>
        <time>2020-02-06T06:48:56Z</time>
      </trkpt>
      <trkpt lat="59.324845" lon="18.075665">
        <ele>11</ele>
        <time>2020-02-06T06:49:00Z</time>
      </trkpt>
      <trkpt lat="59.324951" lon="18.0757">
        <ele>10</ele>
        <time>2020-02-06T06:49:04Z</time>
      </trkpt>
      <trkpt lat="59.325069" lon="18.075649">
        <ele>10</ele>
        <time>2020-02-06T06:49:08Z</time>
      </trkpt>
      <trkpt lat="59.325164" lon="18.07562">
        <ele>10</ele>
        <time>2020-02-06T06:49:12Z</time>
      </trkpt>
      <trkpt lat="59.325259" lon="18.075583">
        <ele>11</ele>
        <time>2020-02-06T06:49:16Z</time>
      </trkpt>
      <trkpt lat="59.325366" lon="18.075543">
        <ele>11</ele>
        <time>2020-02-06T06:49:20Z</time>
      </trkpt>
      <trkpt lat="59.325459" lon="18.075525">
        <ele>11</ele>
        <time>2020-02-06T06:49:24Z</time>
      </trkpt>
      <trkpt lat="59.325536" lon="18.07563">
        <ele>11</ele>
        <time>2020-02-06T06:49:27Z</time>
      </trkpt>
      <trkpt lat="59.325612" lon="18.075729">
        <ele>12</ele>
        <time>2020-02-06T06:49:30Z</time>
      </trkpt>
      <trkpt lat="59.325705" lon="18.075741">
        <ele>12</ele>
        <time>2020-02-06T06:49:34Z</time>
      </trkpt>
      <trkpt lat="59.325806" lon="18.075753">
        <ele>12</ele>
        <time>2020-02-06T06:49:38Z</time>
      </trkpt>
      <trkpt lat="59.325827" lon="18.075753">
        <ele>12</ele>
        <time>2020-02-06T06:49:39Z</time>
      </trkpt>
      <trkpt lat="59.325847" lon="18.075746">
        <ele>12</ele>
        <time>2020-02-06T06:49:40Z</time>
      </trkpt>
      <trkpt lat="59.325868" lon="18.07573">
        <ele>12</ele>
        <time>2020-02-06T06:49:41Z</time>
      </trkpt>
      <trkpt lat="59.325944" lon="18.075649">
        <ele>11</ele>
        <time>2020-02-06T06:49:45Z</time>
      </trkpt>
      <trkpt lat="59.325968" lon="18.075631">
        <ele>11</ele>
        <time>2020-02-06T06:49:46Z</time>
      </trkpt>
      <trkpt lat="59.325983" lon="18.07561">
        <ele>12</ele>
        <time>2020-02-06T06:49:47Z</time>
      </trkpt>
      <trkpt lat="59.325996" lon="18.075579">
        <ele>11</ele>
        <time>2020-02-06T06:49:48Z</time>
      </trkpt>
      <trkpt lat="59.326016" lon="18.075546">
        <ele>11</ele>
        <time>2020-02-06T06:49:49Z</time>
      </trkpt>
      <trkpt lat="59.326032" lon="18.075514">
        <ele>11</ele>
        <time>2020-02-06T06:49:50Z</time>
      </trkpt>
      <trkpt lat="59.326047" lon="18.075477">
        <ele>11</ele>
        <time>2020-02-06T06:49:51Z</time>
      </trkpt>
      <trkpt lat="59.326119" lon="18.07534">
        <ele>11</ele>
        <time>2020-02-06T06:49:55Z</time>
      </trkpt>
      <trkpt lat="59.326141" lon="18.075293">
        <ele>11</ele>
        <time>2020-02-06T06:49:56Z</time>
      </trkpt>
      <trkpt lat="59.326166" lon="18.075263">
        <ele>11</ele>
        <time>2020-02-06T06:49:57Z</time>
      </trkpt>
      <trkpt lat="59.326242" lon="18.075158">
        <ele>11</ele>
        <time>2020-02-06T06:50:00Z</time>
      </trkpt>
      <trkpt lat="59.326272" lon="18.075141">
        <ele>11</ele>
        <time>2020-02-06T06:50:01Z</time>
      </trkpt>
      <trkpt lat="59.326294" lon="18.075122">
        <ele>11</ele>
        <time>2020-02-06T06:50:02Z</time>
      </trkpt>
      <trkpt lat="59.32632" lon="18.075102">
        <ele>11</ele>
        <time>2020-02-06T06:50:03Z</time>
      </trkpt>
      <trkpt lat="59.32639" lon="18.075027">
        <ele>11</ele>
        <time>2020-02-06T06:50:06Z</time>
      </trkpt>
      <trkpt lat="59.326406" lon="18.074999">
        <ele>11</ele>
        <time>2020-02-06T06:50:07Z</time>
      </trkpt>
      <trkpt lat="59.326427" lon="18.07497">
        <ele>11</ele>
        <time>2020-02-06T06:50:08Z</time>
      </trkpt>
      <trkpt lat="59.326537" lon="18.074877">
        <ele>11</ele>
        <time>2020-02-06T06:50:12Z</time>
      </trkpt>
      <trkpt lat="59.326568" lon="18.074875">
        <ele>11</ele>
        <time>2020-02-06T06:50:13Z</time>
      </trkpt>
      <trkpt lat="59.326592" lon="18.07486">
        <ele>11</ele>
        <time>2020-02-06T06:50:14Z</time>
      </trkpt>
      <trkpt lat="59.326618" lon="18.074842">
        <ele>11</ele>
        <time>2020-02-06T06:50:15Z</time>
      </trkpt>
      <trkpt lat="59.326642" lon="18.074824">
        <ele>11</ele>
        <time>2020-02-06T06:50:16Z</time>
      </trkpt>
      <trkpt lat="59.326664" lon="18.074795">
        <ele>10</ele>
        <time>2020-02-06T06:50:17Z</time>
      </trkpt>
      <trkpt lat="59.326688" lon="18.074771">
        <ele>10</ele>
        <time>2020-02-06T06:50:18Z</time>
      </trkpt>
      <trkpt lat="59.326713" lon="18.074751">
        <ele>10</ele>
        <time>2020-02-06T06:50:19Z</time>
      </trkpt>
      <trkpt lat="59.326736" lon="18.074728">
        <ele>10</ele>
        <time>2020-02-06T06:50:20Z</time>
      </trkpt>
      <trkpt lat="59.326756" lon="18.074706">
        <ele>10</ele>
        <time>2020-02-06T06:50:21Z</time>
      </trkpt>
      <trkpt lat="59.326783" lon="18.074688">
        <ele>10</ele>
        <time>2020-02-06T06:50:22Z</time>
      </trkpt>
      <trkpt lat="59.326806" lon="18.074667">
        <ele>10</ele>
        <time>2020-02-06T06:50:23Z</time>
      </trkpt>
      <trkpt lat="59.326838" lon="18.074648">
        <ele>10</ele>
        <time>2020-02-06T06:50:24Z</time>
      </trkpt>
      <trkpt lat="59.326862" lon="18.074628">
        <ele>10</ele>
        <time>2020-02-06T06:50:25Z</time>
      </trkpt>
      <trkpt lat="59.326882" lon="18.074611">
        <ele>10</ele>
        <time>2020-02-06T06:50:26Z</time>
      </trkpt>
      <trkpt lat="59.326904" lon="18.074588">
        <ele>10</ele>
        <time>2020-02-06T06:50:27Z</time>
      </trkpt>
      <trkpt lat="59.326928" lon="18.07456">
        <ele>10</ele>
        <time>2020-02-06T06:50:28Z</time>
      </trkpt>
      <trkpt lat="59.32695" lon="18.074529">
        <ele>10</ele>
        <time>2020-02-06T06:50:29Z</time>
      </trkpt>
      <trkpt lat="59.32697" lon="18.074503">
        <ele>10</ele>
        <time>2020-02-06T06:50:30Z</time>
      </trkpt>
      <trkpt lat="59.326994" lon="18.074473">
        <ele>10</ele>
        <time>2020-02-06T06:50:31Z</time>
      </trkpt>
      <trkpt lat="59.327017" lon="18.074451">
        <ele>10</ele>
        <time>2020-02-06T06:50:32Z</time>
      </trkpt>
      <trkpt lat="59.32704" lon="18.074428">
        <ele>10</ele>
        <time>2020-02-06T06:50:33Z</time>
      </trkpt>
      <trkpt lat="59.327063" lon="18.074403">
        <ele>10</ele>
        <time>2020-02-06T06:50:34Z</time>
      </trkpt>
      <trkpt lat="59.327082" lon="18.074375">
        <ele>10</ele>
        <time>2020-02-06T06:50:35Z</time>
      </trkpt>
      <trkpt lat="59.327104" lon="18.074351">
        <ele>10</ele>
        <time>2020-02-06T06:50:36Z</time>
      </trkpt>
      <trkpt lat="59.327124" lon="18.074323">
        <ele>10</ele>
        <time>2020-02-06T06:50:37Z</time>
      </trkpt>
      <trkpt lat="59.327145" lon="18.074295">
        <ele>10</ele>
        <time>2020-02-06T06:50:38Z</time>
      </trkpt>
      <trkpt lat="59.327167" lon="18.074268">
        <ele>10</ele>
        <time>2020-02-06T06:50:39Z</time>
      </trkpt>
      <trkpt lat="59.327188" lon="18.074235">
        <ele>10</ele>
        <time>2020-02-06T06:50:40Z</time>
      </trkpt>
      <trkpt lat="59.327206" lon="18.074202">
        <ele>9</ele>
        <time>2020-02-06T06:50:41Z</time>
      </trkpt>
      <trkpt lat="59.327226" lon="18.074169">
        <ele>10</ele>
        <time>2020-02-06T06:50:42Z</time>
      </trkpt>
      <trkpt lat="59.327247" lon="18.07414">
        <ele>10</ele>
        <time>2020-02-06T06:50:43Z</time>
      </trkpt>
      <trkpt lat="59.32727" lon="18.074114">
        <ele>10</ele>
        <time>2020-02-06T06:50:44Z</time>
      </trkpt>
      <trkpt lat="59.327292" lon="18.074086">
        <ele>9</ele>
        <time>2020-02-06T06:50:45Z</time>
      </trkpt>
      <trkpt lat="59.327314" lon="18.074056">
        <ele>9</ele>
        <time>2020-02-06T06:50:46Z</time>
      </trkpt>
      <trkpt lat="59.327336" lon="18.074024">
        <ele>9</ele>
        <time>2020-02-06T06:50:47Z</time>
      </trkpt>
      <trkpt lat="59.327358" lon="18.073993">
        <ele>9</ele>
        <time>2020-02-06T06:50:48Z</time>
      </trkpt>
      <trkpt lat="59.327379" lon="18.073963">
        <ele>10</ele>
        <time>2020-02-06T06:50:49Z</time>
      </trkpt>
      <trkpt lat="59.327404" lon="18.07393">
        <ele>10</ele>
        <time>2020-02-06T06:50:50Z</time>
      </trkpt>
      <trkpt lat="59.327423" lon="18.073896">
        <ele>10</ele>
        <time>2020-02-06T06:50:51Z</time>
      </trkpt>
      <trkpt lat="59.327446" lon="18.07387">
        <ele>10</ele>
        <time>2020-02-06T06:50:52Z</time>
      </trkpt>
      <trkpt lat="59.327465" lon="18.073849">
        <ele>10</ele>
        <time>2020-02-06T06:50:53Z</time>
      </trkpt>
      <trkpt lat="59.327487" lon="18.073826">
        <ele>9</ele>
        <time>2020-02-06T06:50:54Z</time>
      </trkpt>
      <trkpt lat="59.327513" lon="18.073802">
        <ele>9</ele>
        <time>2020-02-06T06:50:55Z</time>
      </trkpt>
      <trkpt lat="59.327533" lon="18.073778">
        <ele>9</ele>
        <time>2020-02-06T06:50:56Z</time>
      </trkpt>
      <trkpt lat="59.327558" lon="18.073753">
        <ele>9</ele>
        <time>2020-02-06T06:50:57Z</time>
      </trkpt>
      <trkpt lat="59.327578" lon="18.073727">
        <ele>9</ele>
        <time>2020-02-06T06:50:58Z</time>
      </trkpt>
      <trkpt lat="59.327603" lon="18.073696">
        <ele>9</ele>
        <time>2020-02-06T06:50:59Z</time>
      </trkpt>
      <trkpt lat="59.327626" lon="18.073664">
        <ele>9</ele>
        <time>2020-02-06T06:51:00Z</time>
      </trkpt>
      <trkpt lat="59.327648" lon="18.073632">
        <ele>9</ele>
        <time>2020-02-06T06:51:01Z</time>
      </trkpt>
      <trkpt lat="59.327669" lon="18.0736">
        <ele>9</ele>
        <time>2020-02-06T06:51:02Z</time>
      </trkpt>
      <trkpt lat="59.327691" lon="18.073569">
        <ele>9</ele>
        <time>2020-02-06T06:51:03Z</time>
      </trkpt>
      <trkpt lat="59.327712" lon="18.073541">
        <ele>9</ele>
        <time>2020-02-06T06:51:04Z</time>
      </trkpt>
      <trkpt lat="59.327735" lon="18.073514">
        <ele>9</ele>
        <time>2020-02-06T06:51:05Z</time>
      </trkpt>
      <trkpt lat="59.327756" lon="18.073487">
        <ele>9</ele>
        <time>2020-02-06T06:51:06Z</time>
      </trkpt>
      <trkpt lat="59.32778" lon="18.073462">
        <ele>9</ele>
        <time>2020-02-06T06:51:07Z</time>
      </trkpt>
      <trkpt lat="59.327803" lon="18.073436">
        <ele>9</ele>
        <time>2020-02-06T06:51:08Z</time>
      </trkpt>
      <trkpt lat="59.327826" lon="18.07341">
        <ele>9</ele>
        <time>2020-02-06T06:51:09Z</time>
      </trkpt>
      <trkpt lat="59.327853" lon="18.073384">
        <ele>9</ele>
        <time>2020-02-06T06:51:10Z</time>
      </trkpt>
      <trkpt lat="59.327876" lon="18.073357">
        <ele>9</ele>
        <time>2020-02-06T06:51:11Z</time>
      </trkpt>
      <trkpt lat="59.327903" lon="18.073334">
        <ele>9</ele>
        <time>2020-02-06T06:51:12Z</time>
      </trkpt>
      <trkpt lat="59.327932" lon="18.073314">
        <ele>9</ele>
        <time>2020-02-06T06:51:13Z</time>
      </trkpt>
      <trkpt lat="59.327959" lon="18.073288">
        <ele>9</ele>
        <time>2020-02-06T06:51:14Z</time>
      </trkpt>
      <trkpt lat="59.327986" lon="18.07326">
        <ele>10</ele>
        <time>2020-02-06T06:51:15Z</time>
      </trkpt>
      <trkpt lat="59.328013" lon="18.073235">
        <ele>10</ele>
        <time>2020-02-06T06:51:16Z</time>
      </trkpt>
      <trkpt lat="59.328043" lon="18.073213">
        <ele>10</ele>
        <time>2020-02-06T06:51:17Z</time>
      </trkpt>
      <trkpt lat="59.328071" lon="18.073194">
        <ele>11</ele>
        <time>2020-02-06T06:51:18Z</time>
      </trkpt>
      <trkpt lat="59.3281" lon="18.073176">
        <ele>11</ele>
        <time>2020-02-06T06:51:19Z</time>
      </trkpt>
      <trkpt lat="59.328127" lon="18.073161">
        <ele>11</ele>
        <time>2020-02-06T06:51:20Z</time>
      </trkpt>
      <trkpt lat="59.328154" lon="18.073148">
        <ele>11</ele>
        <time>2020-02-06T06:51:21Z</time>
      </trkpt>
      <trkpt lat="59.328183" lon="18.073135">
        <ele>11</ele>
        <time>2020-02-06T06:51:22Z</time>
      </trkpt>
      <trkpt lat="59.328211" lon="18.073127">
        <ele>11</ele>
        <time>2020-02-06T06:51:23Z</time>
      </trkpt>
      <trkpt lat="59.328237" lon="18.073119">
        <ele>11</ele>
        <time>2020-02-06T06:51:24Z</time>
      </trkpt>
      <trkpt lat="59.328263" lon="18.073117">
        <ele>10</ele>
        <time>2020-02-06T06:51:25Z</time>
      </trkpt>
      <trkpt lat="59.328292" lon="18.07312">
        <ele>10</ele>
        <time>2020-02-06T06:51:26Z</time>
      </trkpt>
      <trkpt lat="59.328318" lon="18.073127">
        <ele>10</ele>
        <time>2020-02-06T06:51:27Z</time>
      </trkpt>
      <trkpt lat="59.328348" lon="18.073134">
        <ele>10</ele>
        <time>2020-02-06T06:51:28Z</time>
      </trkpt>
      <trkpt lat="59.328377" lon="18.073142">
        <ele>10</ele>
        <time>2020-02-06T06:51:29Z</time>
      </trkpt>
      <trkpt lat="59.328404" lon="18.073149">
        <ele>10</ele>
        <time>2020-02-06T06:51:30Z</time>
      </trkpt>
      <trkpt lat="59.328431" lon="18.073157">
        <ele>10</ele>
        <time>2020-02-06T06:51:31Z</time>
      </trkpt>
      <trkpt lat="59.328457" lon="18.073165">
        <ele>10</ele>
        <time>2020-02-06T06:51:32Z</time>
      </trkpt>
      <trkpt lat="59.328485" lon="18.073177">
        <ele>10</ele>
        <time>2020-02-06T06:51:33Z</time>
      </trkpt>
      <trkpt lat="59.328514" lon="18.073184">
        <ele>9</ele>
        <time>2020-02-06T06:51:34Z</time>
      </trkpt>
      <trkpt lat="59.328541" lon="18.073195">
        <ele>9</ele>
        <time>2020-02-06T06:51:35Z</time>
      </trkpt>
      <trkpt lat="59.328567" lon="18.073203">
        <ele>9</ele>
        <time>2020-02-06T06:51:36Z</time>
      </trkpt>
      <trkpt lat="59.328593" lon="18.073208">
        <ele>9</ele>
        <time>2020-02-06T06:51:37Z</time>
      </trkpt>
      <trkpt lat="59.328618" lon="18.073215">
        <ele>9</ele>
        <time>2020-02-06T06:51:38Z</time>
      </trkpt>
      <trkpt lat="59.328645" lon="18.073221">
        <ele>9</ele>
        <time>2020-02-06T06:51:39Z</time>
      </trkpt>
      <trkpt lat="59.328673" lon="18.073227">
        <ele>9</ele>
        <time>2020-02-06T06:51:40Z</time>
      </trkpt>
      <trkpt lat="59.328698" lon="18.073232">
        <ele>9</ele>
        <time>2020-02-06T06:51:41Z</time>
      </trkpt>
      <trkpt lat="59.328724" lon="18.073236">
        <ele>8</ele>
        <time>2020-02-06T06:51:42Z</time>
      </trkpt>
      <trkpt lat="59.32875" lon="18.073241">
        <ele>8</ele>
        <time>2020-02-06T06:51:43Z</time>
      </trkpt>
      <trkpt lat="59.328776" lon="18.07325">
        <ele>8</ele>
        <time>2020-02-06T06:51:44Z</time>
      </trkpt>
      <trkpt lat="59.328804" lon="18.073259">
        <ele>8</ele>
        <time>2020-02-06T06:51:45Z</time>
      </trkpt>
      <trkpt lat="59.328832" lon="18.07327">
        <ele>8</ele>
        <time>2020-02-06T06:51:46Z</time>
      </trkpt>
      <trkpt lat="59.328858" lon="18.073279">
        <ele>8</ele>
        <time>2020-02-06T06:51:47Z</time>
      </trkpt>
      <trkpt lat="59.328884" lon="18.073288">
        <ele>8</ele>
        <time>2020-02-06T06:51:48Z</time>
      </trkpt>
      <trkpt lat="59.328911" lon="18.073296">
        <ele>8</ele>
        <time>2020-02-06T06:51:49Z</time>
      </trkpt>
      <trkpt lat="59.328937" lon="18.073305">
        <ele>8</ele>
        <time>2020-02-06T06:51:50Z</time>
      </trkpt>
      <trkpt lat="59.328964" lon="18.073314">
        <ele>8</ele>
        <time>2020-02-06T06:51:51Z</time>
      </trkpt>
      <trkpt lat="59.328989" lon="18.073325">
        <ele>8</ele>
        <time>2020-02-06T06:51:52Z</time>
      </trkpt>
      <trkpt lat="59.329017" lon="18.073334">
        <ele>8</ele>
        <time>2020-02-06T06:51:53Z</time>
      </trkpt>
      <trkpt lat="59.329042" lon="18.073343">
        <ele>8</ele>
        <time>2020-02-06T06:51:54Z</time>
      </trkpt>
      <trkpt lat="59.329071" lon="18.073353">
        <ele>8</ele>
        <time>2020-02-06T06:51:55Z</time>
      </trkpt>
      <trkpt lat="59.329098" lon="18.073364">
        <ele>7</ele>
        <time>2020-02-06T06:51:56Z</time>
      </trkpt>
      <trkpt lat="59.329125" lon="18.073368">
        <ele>7</ele>
        <time>2020-02-06T06:51:57Z</time>
      </trkpt>
      <trkpt lat="59.329149" lon="18.07338">
        <ele>7</ele>
        <time>2020-02-06T06:51:58Z</time>
      </trkpt>
      <trkpt lat="59.329174" lon="18.073389">
        <ele>7</ele>
        <time>2020-02-06T06:51:59Z</time>
      </trkpt>
      <trkpt lat="59.329201" lon="18.073399">
        <ele>7</ele>
        <time>2020-02-06T06:52:00Z</time>
      </trkpt>
      <trkpt lat="59.329227" lon="18.073408">
        <ele>7</ele>
        <time>2020-02-06T06:52:01Z</time>
      </trkpt>
      <trkpt lat="59.329251" lon="18.07342">
        <ele>7</ele>
        <time>2020-02-06T06:52:02Z</time>
      </trkpt>
      <trkpt lat="59.329279" lon="18.073428">
        <ele>7</ele>
        <time>2020-02-06T06:52:03Z</time>
      </trkpt>
      <trkpt lat="59.329308" lon="18.073432">
        <ele>7</ele>
        <time>2020-02-06T06:52:04Z</time>
      </trkpt>
      <trkpt lat="59.329334" lon="18.07344">
        <ele>7</ele>
        <time>2020-02-06T06:52:05Z</time>
      </trkpt>
      <trkpt lat="59.329362" lon="18.073443">
        <ele>6</ele>
        <time>2020-02-06T06:52:06Z</time>
      </trkpt>
      <trkpt lat="59.329388" lon="18.07345">
        <ele>6</ele>
        <time>2020-02-06T06:52:07Z</time>
      </trkpt>
      <trkpt lat="59.329414" lon="18.073457">
        <ele>6</ele>
        <time>2020-02-06T06:52:08Z</time>
      </trkpt>
      <trkpt lat="59.329441" lon="18.073466">
        <ele>6</ele>
        <time>2020-02-06T06:52:09Z</time>
      </trkpt>
      <trkpt lat="59.329466" lon="18.073477">
        <ele>6</ele>
        <time>2020-02-06T06:52:10Z</time>
      </trkpt>
      <trkpt lat="59.329492" lon="18.073495">
        <ele>6</ele>
        <time>2020-02-06T06:52:11Z</time>
      </trkpt>
      <trkpt lat="59.329514" lon="18.073526">
        <ele>6</ele>
        <time>2020-02-06T06:52:12Z</time>
      </trkpt>
      <trkpt lat="59.329532" lon="18.073555">
        <ele>6</ele>
        <time>2020-02-06T06:52:13Z</time>
      </trkpt>
      <trkpt lat="59.329551" lon="18.073581">
        <ele>6</ele>
        <time>2020-02-06T06:52:14Z</time>
      </trkpt>
      <trkpt lat="59.329572" lon="18.073604">
        <ele>6</ele>
        <time>2020-02-06T06:52:15Z</time>
      </trkpt>
      <trkpt lat="59.329593" lon="18.073621">
        <ele>6</ele>
        <time>2020-02-06T06:52:16Z</time>
      </trkpt>
      <trkpt lat="59.32961" lon="18.073638">
        <ele>6</ele>
        <time>2020-02-06T06:52:17Z</time>
      </trkpt>
      <trkpt lat="59.329632" lon="18.073641">
        <ele>6</ele>
        <time>2020-02-06T06:52:18Z</time>
      </trkpt>
      <trkpt lat="59.32966" lon="18.073635">
        <ele>6</ele>
        <time>2020-02-06T06:52:19Z</time>
      </trkpt>
      <trkpt lat="59.329688" lon="18.073627">
        <ele>6</ele>
        <time>2020-02-06T06:52:20Z</time>
      </trkpt>
      <trkpt lat="59.329721" lon="18.073613">
        <ele>6</ele>
        <time>2020-02-06T06:52:21Z</time>
      </trkpt>
      <trkpt lat="59.329747" lon="18.073601">
        <ele>6</ele>
        <time>2020-02-06T06:52:22Z</time>
      </trkpt>
      <trkpt lat="59.329771" lon="18.073591">
        <ele>6</ele>
        <time>2020-02-06T06:52:23Z</time>
      </trkpt>
      <trkpt lat="59.329794" lon="18.073573">
        <ele>6</ele>
        <time>2020-02-06T06:52:24Z</time>
      </trkpt>
      <trkpt lat="59.329815" lon="18.073556">
        <ele>6</ele>
        <time>2020-02-06T06:52:25Z</time>
      </trkpt>
      <trkpt lat="59.32984" lon="18.073535">
        <ele>5</ele>
        <time>2020-02-06T06:52:26Z</time>
      </trkpt>
      <trkpt lat="59.329867" lon="18.073512">
        <ele>5</ele>
        <time>2020-02-06T06:52:27Z</time>
      </trkpt>
      <trkpt lat="59.329894" lon="18.073496">
        <ele>5</ele>
        <time>2020-02-06T06:52:28Z</time>
      </trkpt>
      <trkpt lat="59.329918" lon="18.073471">
        <ele>5</ele>
        <time>2020-02-06T06:52:29Z</time>
      </trkpt>
      <trkpt lat="59.329944" lon="18.073449">
        <ele>5</ele>
        <time>2020-02-06T06:52:30Z</time>
      </trkpt>
      <trkpt lat="59.329966" lon="18.073428">
        <ele>5</ele>
        <time>2020-02-06T06:52:31Z</time>
      </trkpt>
      <trkpt lat="59.33006" lon="18.073293">
        <ele>5</ele>
        <time>2020-02-06T06:52:35Z</time>
      </trkpt>
      <trkpt lat="59.330153" lon="18.07316">
        <ele>5</ele>
        <time>2020-02-06T06:52:39Z</time>
      </trkpt>
      <trkpt lat="59.330246" lon="18.073023">
        <ele>4</ele>
        <time>2020-02-06T06:52:43Z</time>
      </trkpt>
      <trkpt lat="59.33032" lon="18.072919">
        <ele>4</ele>
        <time>2020-02-06T06:52:46Z</time>
      </trkpt>
      <trkpt lat="59.330413" lon="18.072837">
        <ele>4</ele>
        <time>2020-02-06T06:52:50Z</time>
      </trkpt>
      <trkpt lat="59.330498" lon="18.072761">
        <ele>4</ele>
        <time>2020-02-06T06:52:54Z</time>
      </trkpt>
      <trkpt lat="59.330571" lon="18.07296">
        <ele>4</ele>
        <time>2020-02-06T06:52:56Z</time>
      </trkpt>
      <trkpt lat="59.330625" lon="18.073109">
        <ele>4</ele>
        <time>2020-02-06T06:52:59Z</time>
      </trkpt>
      <trkpt lat="59.330691" lon="18.073284">
        <ele>4</ele>
        <time>2020-02-06T06:53:03Z</time>
      </trkpt>
      <trkpt lat="59.330747" lon="18.073455">
        <ele>4</ele>
        <time>2020-02-06T06:53:07Z</time>
      </trkpt>
      <trkpt lat="59.330812" lon="18.073621">
        <ele>5</ele>
        <time>2020-02-06T06:53:11Z</time>
      </trkpt>
      <trkpt lat="59.330886" lon="18.073801">
        <ele>6</ele>
        <time>2020-02-06T06:53:15Z</time>
      </trkpt>
      <trkpt lat="59.330949" lon="18.073959">
        <ele>7</ele>
        <time>2020-02-06T06:53:19Z</time>
      </trkpt>
      <trkpt lat="59.331026" lon="18.074116">
        <ele>7</ele>
        <time>2020-02-06T06:53:23Z</time>
      </trkpt>
      <trkpt lat="59.331047" lon="18.074314">
        <ele>7</ele>
        <time>2020-02-06T06:53:27Z</time>
      </trkpt>
      <trkpt lat="59.331091" lon="18.074485">
        <ele>8</ele>
        <time>2020-02-06T06:53:32Z</time>
      </trkpt>
      <trkpt lat="59.331176" lon="18.074577">
        <ele>8</ele>
        <time>2020-02-06T06:53:36Z</time>
      </trkpt>
      <trkpt lat="59.33127" lon="18.074668">
        <ele>8</ele>
        <time>2020-02-06T06:53:40Z</time>
      </trkpt>
      <trkpt lat="59.331372" lon="18.074722">
        <ele>8</ele>
        <time>2020-02-06T06:53:44Z</time>
      </trkpt>
      <trkpt lat="59.331495" lon="18.074753">
        <ele>8</ele>
        <time>2020-02-06T06:53:48Z</time>
      </trkpt>
      <trkpt lat="59.331599" lon="18.074756">
        <ele>8</ele>
        <time>2020-02-06T06:53:52Z</time>
      </trkpt>
      <trkpt lat="59.331688" lon="18.074824">
        <ele>8</ele>
        <time>2020-02-06T06:53:56Z</time>
      </trkpt>
      <trkpt lat="59.331784" lon="18.074934">
        <ele>7</ele>
        <time>2020-02-06T06:54:00Z</time>
      </trkpt>
      <trkpt lat="59.331799" lon="18.075181">
        <ele>6</ele>
        <time>2020-02-06T06:54:02Z</time>
      </trkpt>
      <trkpt lat="59.331819" lon="18.075383">
        <ele>6</ele>
        <time>2020-02-06T06:54:05Z</time>
      </trkpt>
      <trkpt lat="59.331884" lon="18.075548">
        <ele>5</ele>
        <time>2020-02-06T06:54:09Z</time>
      </trkpt>
      <trkpt lat="59.331953" lon="18.075708">
        <ele>5</ele>
        <time>2020-02-06T06:54:13Z</time>
      </trkpt>
      <trkpt lat="59.332004" lon="18.075793">
        <ele>4</ele>
        <time>2020-02-06T06:54:15Z</time>
      </trkpt>
      <trkpt lat="59.332052" lon="18.075874">
        <ele>5</ele>
        <time>2020-02-06T06:54:17Z</time>
      </trkpt>
      <trkpt lat="59.332076" lon="18.075918">
        <ele>5</ele>
        <time>2020-02-06T06:54:18Z</time>
      </trkpt>
      <trkpt lat="59.332098" lon="18.075963">
        <ele>5</ele>
        <time>2020-02-06T06:54:19Z</time>
      </trkpt>
      <trkpt lat="59.332116" lon="18.076003">
        <ele>5</ele>
        <time>2020-02-06T06:54:20Z</time>
      </trkpt>
      <trkpt lat="59.332136" lon="18.076041">
        <ele>5</ele>
        <time>2020-02-06T06:54:21Z</time>
      </trkpt>
      <trkpt lat="59.332152" lon="18.076081">
        <ele>5</ele>
        <time>2020-02-06T06:54:22Z</time>
      </trkpt>
      <trkpt lat="59.33217" lon="18.076117">
        <ele>5</ele>
        <time>2020-02-06T06:54:23Z</time>
      </trkpt>
      <trkpt lat="59.332192" lon="18.076151">
        <ele>5</ele>
        <time>2020-02-06T06:54:24Z</time>
      </trkpt>
      <trkpt lat="59.332214" lon="18.076183">
        <ele>5</ele>
        <time>2020-02-06T06:54:25Z</time>
      </trkpt>
      <trkpt lat="59.332233" lon="18.076218">
        <ele>5</ele>
        <time>2020-02-06T06:54:26Z</time>
      </trkpt>
      <trkpt lat="59.332256" lon="18.076258">
        <ele>5</ele>
        <time>2020-02-06T06:54:27Z</time>
      </trkpt>
      <trkpt lat="59.332277" lon="18.076303">
        <ele>5</ele>
        <time>2020-02-06T06:54:28Z</time>
      </trkpt>
      <trkpt lat="59.332295" lon="18.076341">
        <ele>5</ele>
        <time>2020-02-06T06:54:29Z</time>
      </trkpt>
      <trkpt lat="59.332319" lon="18.076387">
        <ele>5</ele>
        <time>2020-02-06T06:54:30Z</time>
      </trkpt>
      <trkpt lat="59.332337" lon="18.07643">
        <ele>5</ele>
        <time>2020-02-06T06:54:31Z</time>
      </trkpt>
      <trkpt lat="59.332351" lon="18.076473">
        <ele>5</ele>
        <time>2020-02-06T06:54:32Z</time>
      </trkpt>
      <trkpt lat="59.332366" lon="18.076508">
        <ele>5</ele>
        <time>2020-02-06T06:54:33Z</time>
      </trkpt>
      <trkpt lat="59.332379" lon="18.076549">
        <ele>5</ele>
        <time>2020-02-06T06:54:34Z</time>
      </trkpt>
      <trkpt lat="59.332393" lon="18.07659">
        <ele>5</ele>
        <time>2020-02-06T06:54:35Z</time>
      </trkpt>
      <trkpt lat="59.332409" lon="18.076631">
        <ele>5</ele>
        <time>2020-02-06T06:54:36Z</time>
      </trkpt>
      <trkpt lat="59.332426" lon="18.076671">
        <ele>5</ele>
        <time>2020-02-06T06:54:37Z</time>
      </trkpt>
      <trkpt lat="59.332441" lon="18.076711">
        <ele>5</ele>
        <time>2020-02-06T06:54:38Z</time>
      </trkpt>
      <trkpt lat="59.332456" lon="18.076763">
        <ele>5</ele>
        <time>2020-02-06T06:54:39Z</time>
      </trkpt>
      <trkpt lat="59.332472" lon="18.076808">
        <ele>5</ele>
        <time>2020-02-06T06:54:40Z</time>
      </trkpt>
      <trkpt lat="59.332486" lon="18.07685">
        <ele>5</ele>
        <time>2020-02-06T06:54:41Z</time>
      </trkpt>
      <trkpt lat="59.3325" lon="18.076892">
        <ele>5</ele>
        <time>2020-02-06T06:54:42Z</time>
      </trkpt>
      <trkpt lat="59.332506" lon="18.07693">
        <ele>5</ele>
        <time>2020-02-06T06:54:43Z</time>
      </trkpt>
      <trkpt lat="59.332511" lon="18.076967">
        <ele>5</ele>
        <time>2020-02-06T06:54:44Z</time>
      </trkpt>
      <trkpt lat="59.332528" lon="18.07702">
        <ele>5</ele>
        <time>2020-02-06T06:54:46Z</time>
      </trkpt>
      <trkpt lat="59.332541" lon="18.077046">
        <ele>5</ele>
        <time>2020-02-06T06:54:47Z</time>
      </trkpt>
      <trkpt lat="59.33256" lon="18.077065">
        <ele>6</ele>
        <time>2020-02-06T06:54:48Z</time>
      </trkpt>
      <trkpt lat="59.3326" lon="18.077098">
        <ele>6</ele>
        <time>2020-02-06T06:54:49Z</time>
      </trkpt>
      <trkpt lat="59.332629" lon="18.077121">
        <ele>6</ele>
        <time>2020-02-06T06:54:50Z</time>
      </trkpt>
      <trkpt lat="59.332674" lon="18.07716">
        <ele>7</ele>
        <time>2020-02-06T06:54:51Z</time>
      </trkpt>
      <trkpt lat="59.332716" lon="18.077186">
        <ele>7</ele>
        <time>2020-02-06T06:54:52Z</time>
      </trkpt>
      <trkpt lat="59.332758" lon="18.077217">
        <ele>7</ele>
        <time>2020-02-06T06:54:53Z</time>
      </trkpt>
      <trkpt lat="59.332792" lon="18.077252">
        <ele>8</ele>
        <time>2020-02-06T06:54:54Z</time>
      </trkpt>
      <trkpt lat="59.332824" lon="18.077288">
        <ele>8</ele>
        <time>2020-02-06T06:54:55Z</time>
      </trkpt>
      <trkpt lat="59.332855" lon="18.077318">
        <ele>8</ele>
        <time>2020-02-06T06:54:56Z</time>
      </trkpt>
      <trkpt lat="59.332882" lon="18.077341">
        <ele>8</ele>
        <time>2020-02-06T06:54:57Z</time>
      </trkpt>
      <trkpt lat="59.332905" lon="18.077364">
        <ele>8</ele>
        <time>2020-02-06T06:54:58Z</time>
      </trkpt>
      <trkpt lat="59.332926" lon="18.077388">
        <ele>8</ele>
        <time>2020-02-06T06:54:59Z</time>
      </trkpt>
      <trkpt lat="59.332945" lon="18.077411">
        <ele>8</ele>
        <time>2020-02-06T06:55:00Z</time>
      </trkpt>
      <trkpt lat="59.33297" lon="18.077435">
        <ele>8</ele>
        <time>2020-02-06T06:55:01Z</time>
      </trkpt>
      <trkpt lat="59.332995" lon="18.077454">
        <ele>8</ele>
        <time>2020-02-06T06:55:02Z</time>
      </trkpt>
      <trkpt lat="59.333022" lon="18.077479">
        <ele>8</ele>
        <time>2020-02-06T06:55:03Z</time>
      </trkpt>
      <trkpt lat="59.333042" lon="18.077519">
        <ele>9</ele>
        <time>2020-02-06T06:55:04Z</time>
      </trkpt>
      <trkpt lat="59.333061" lon="18.077548">
        <ele>9</ele>
        <time>2020-02-06T06:55:05Z</time>
      </trkpt>
      <trkpt lat="59.333085" lon="18.077581">
        <ele>9</ele>
        <time>2020-02-06T06:55:06Z</time>
      </trkpt>
      <trkpt lat="59.333113" lon="18.077609">
        <ele>10</ele>
        <time>2020-02-06T06:55:07Z</time>
      </trkpt>
      <trkpt lat="59.333137" lon="18.077635">
        <ele>10</ele>
        <time>2020-02-06T06:55:08Z</time>
      </trkpt>
      <trkpt lat="59.333155" lon="18.07766">
        <ele>10</ele>
        <time>2020-02-06T06:55:09Z</time>
      </trkpt>
      <trkpt lat="59.333178" lon="18.077681">
        <ele>10</ele>
        <time>2020-02-06T06:55:10Z</time>
      </trkpt>
      <trkpt lat="59.333197" lon="18.077698">
        <ele>10</ele>
        <time>2020-02-06T06:55:11Z</time>
      </trkpt>
      <trkpt lat="59.333217" lon="18.077719">
        <ele>10</ele>
        <time>2020-02-06T06:55:12Z</time>
      </trkpt>
      <trkpt lat="59.333302" lon="18.077791">
        <ele>11</ele>
        <time>2020-02-06T06:55:17Z</time>
      </trkpt>
      <trkpt lat="59.333398" lon="18.077801">
        <ele>10</ele>
        <time>2020-02-06T06:55:21Z</time>
      </trkpt>
      <trkpt lat="59.33349" lon="18.077816">
        <ele>10</ele>
        <time>2020-02-06T06:55:25Z</time>
      </trkpt>
      <trkpt lat="59.333598" lon="18.077884">
        <ele>10</ele>
        <time>2020-02-06T06:55:29Z</time>
      </trkpt>
      <trkpt lat="59.333694" lon="18.077935">
        <ele>9</ele>
        <time>2020-02-06T06:55:34Z</time>
      </trkpt>
      <trkpt lat="59.333782" lon="18.078032">
        <ele>9</ele>
        <time>2020-02-06T06:55:39Z</time>
      </trkpt>
      <trkpt lat="59.333889" lon="18.078105">
        <ele>9</ele>
        <time>2020-02-06T06:55:44Z</time>
      </trkpt>
      <trkpt lat="59.333988" lon="18.078161">
        <ele>9</ele>
        <time>2020-02-06T06:55:48Z</time>
      </trkpt>
      <trkpt lat="59.334075" lon="18.078287">
        <ele>9</ele>
        <time>2020-02-06T06:55:52Z</time>
      </trkpt>
      <trkpt lat="59.334178" lon="18.078347">
        <ele>10</ele>
        <time>2020-02-06T06:55:56Z</time>
      </trkpt>
      <trkpt lat="59.334283" lon="18.078412">
        <ele>10</ele>
        <time>2020-02-06T06:56:00Z</time>
      </trkpt>
      <trkpt lat="59.334383" lon="18.078487">
        <ele>11</ele>
        <time>2020-02-06T06:56:04Z</time>
      </trkpt>
      <trkpt lat="59.33447" lon="18.07854">
        <ele>11</ele>
        <time>2020-02-06T06:56:07Z</time>
      </trkpt>
      <trkpt lat="59.33456" lon="18.078598">
        <ele>11</ele>
        <time>2020-02-06T06:56:10Z</time>
      </trkpt>
      <trkpt lat="59.334656" lon="18.078648">
        <ele>12</ele>
        <time>2020-02-06T06:56:14Z</time>
      </trkpt>
      <trkpt lat="59.33476" lon="18.078685">
        <ele>12</ele>
        <time>2020-02-06T06:56:18Z</time>
      </trkpt>
      <trkpt lat="59.334874" lon="18.078767">
        <ele>14</ele>
        <time>2020-02-06T06:56:22Z</time>
      </trkpt>
      <trkpt lat="59.334956" lon="18.07887">
        <ele>14</ele>
        <time>2020-02-06T06:56:24Z</time>
      </trkpt>
      <trkpt lat="59.33505" lon="18.078925">
        <ele>15</ele>
        <time>2020-02-06T06:56:27Z</time>
      </trkpt>
      <trkpt lat="59.335145" lon="18.078988">
        <ele>16</ele>
        <time>2020-02-06T06:56:31Z</time>
      </trkpt>
      <trkpt lat="59.335242" lon="18.079087">
        <ele>16</ele>
        <time>2020-02-06T06:56:35Z</time>
      </trkpt>
      <trkpt lat="59.335316" lon="18.079242">
        <ele>16</ele>
        <time>2020-02-06T06:56:39Z</time>
      </trkpt>
      <trkpt lat="59.335401" lon="18.079338">
        <ele>17</ele>
        <time>2020-02-06T06:56:43Z</time>
      </trkpt>
      <trkpt lat="59.33551" lon="18.079443">
        <ele>18</ele>
        <time>2020-02-06T06:56:48Z</time>
      </trkpt>
      <trkpt lat="59.335612" lon="18.079517">
        <ele>19</ele>
        <time>2020-02-06T06:56:52Z</time>
      </trkpt>
      <trkpt lat="59.33563" lon="18.079532">
        <ele>19</ele>
        <time>2020-02-06T06:56:53Z</time>
      </trkpt>
      <trkpt lat="59.33566" lon="18.079551">
        <ele>19</ele>
        <time>2020-02-06T06:56:54Z</time>
      </trkpt>
      <trkpt lat="59.335684" lon="18.079577">
        <ele>19</ele>
        <time>2020-02-06T06:56:55Z</time>
      </trkpt>
      <trkpt lat="59.335702" lon="18.079595">
        <ele>20</ele>
        <time>2020-02-06T06:56:56Z</time>
      </trkpt>
      <trkpt lat="59.335719" lon="18.079628">
        <ele>20</ele>
        <time>2020-02-06T06:56:57Z</time>
      </trkpt>
      <trkpt lat="59.335738" lon="18.079671">
        <ele>21</ele>
        <time>2020-02-06T06:56:58Z</time>
      </trkpt>
      <trkpt lat="59.33577" lon="18.079701">
        <ele>21</ele>
        <time>2020-02-06T06:57:00Z</time>
      </trkpt>
      <trkpt lat="59.335789" lon="18.079719">
        <ele>21</ele>
        <time>2020-02-06T06:57:01Z</time>
      </trkpt>
      <trkpt lat="59.335807" lon="18.079745">
        <ele>21</ele>
        <time>2020-02-06T06:57:02Z</time>
      </trkpt>
      <trkpt lat="59.335828" lon="18.079758">
        <ele>21</ele>
        <time>2020-02-06T06:57:03Z</time>
      </trkpt>
      <trkpt lat="59.335856" lon="18.079773">
        <ele>21</ele>
        <time>2020-02-06T06:57:04Z</time>
      </trkpt>
      <trkpt lat="59.335884" lon="18.079787">
        <ele>21</ele>
        <time>2020-02-06T06:57:05Z</time>
      </trkpt>
      <trkpt lat="59.335907" lon="18.079793">
        <ele>21</ele>
        <time>2020-02-06T06:57:06Z</time>
      </trkpt>
      <trkpt lat="59.33593" lon="18.079798">
        <ele>21</ele>
        <time>2020-02-06T06:57:07Z</time>
      </trkpt>
      <trkpt lat="59.335954" lon="18.0798">
        <ele>21</ele>
        <time>2020-02-06T06:57:08Z</time>
      </trkpt>
      <trkpt lat="59.335977" lon="18.079813">
        <ele>21</ele>
        <time>2020-02-06T06:57:09Z</time>
      </trkpt>
      <trkpt lat="59.336002" lon="18.079818">
        <ele>21</ele>
        <time>2020-02-06T06:57:10Z</time>
      </trkpt>
      <trkpt lat="59.336021" lon="18.079831">
        <ele>21</ele>
        <time>2020-02-06T06:57:11Z</time>
      </trkpt>
      <trkpt lat="59.336121" lon="18.079882">
        <ele>21</ele>
        <time>2020-02-06T06:57:16Z</time>
      </trkpt>
      <trkpt lat="59.33622" lon="18.079939">
        <ele>21</ele>
        <time>2020-02-06T06:57:21Z</time>
      </trkpt>
      <trkpt lat="59.336336" lon="18.079995">
        <ele>21</ele>
        <time>2020-02-06T06:57:25Z</time>
      </trkpt>
      <trkpt lat="59.336428" lon="18.08006">
        <ele>21</ele>
        <time>2020-02-06T06:57:29Z</time>
      </trkpt>
      <trkpt lat="59.33652" lon="18.080129">
        <ele>21</ele>
        <time>2020-02-06T06:57:33Z</time>
      </trkpt>
      <trkpt lat="59.336599" lon="18.080185">
        <ele>22</ele>
        <time>2020-02-06T06:57:36Z</time>
      </trkpt>
      <trkpt lat="59.336707" lon="18.08028">
        <ele>22</ele>
        <time>2020-02-06T06:57:40Z</time>
      </trkpt>
      <trkpt lat="59.336793" lon="18.08035">
        <ele>22</ele>
        <time>2020-02-06T06:57:43Z</time>
      </trkpt>
      <trkpt lat="59.336895" lon="18.080441">
        <ele>22</ele>
        <time>2020-02-06T06:57:47Z</time>
      </trkpt>
      <trkpt lat="59.336989" lon="18.080515">
        <ele>21</ele>
        <time>2020-02-06T06:57:51Z</time>
      </trkpt>
      <trkpt lat="59.33708" lon="18.080648">
        <ele>23</ele>
        <time>2020-02-06T06:57:55Z</time>
      </trkpt>
      <trkpt lat="59.337171" lon="18.080745">
        <ele>24</ele>
        <time>2020-02-06T06:58:00Z</time>
      </trkpt>
      <trkpt lat="59.337275" lon="18.080786">
        <ele>24</ele>
        <time>2020-02-06T06:58:05Z</time>
      </trkpt>
      <trkpt lat="59.337373" lon="18.080844">
        <ele>24</ele>
        <time>2020-02-06T06:58:11Z</time>
      </trkpt>
      <trkpt lat="59.337461" lon="18.080936">
        <ele>25</ele>
        <time>2020-02-06T06:58:16Z</time>
      </trkpt>
      <trkpt lat="59.337549" lon="18.081018">
        <ele>25</ele>
        <time>2020-02-06T06:58:20Z</time>
      </trkpt>
      <trkpt lat="59.337668" lon="18.081095">
        <ele>24</ele>
        <time>2020-02-06T06:58:24Z</time>
      </trkpt>
      <trkpt lat="59.337769" lon="18.081157">
        <ele>24</ele>
        <time>2020-02-06T06:58:27Z</time>
      </trkpt>
      <trkpt lat="59.337871" lon="18.081242">
        <ele>24</ele>
        <time>2020-02-06T06:58:30Z</time>
      </trkpt>
      <trkpt lat="59.337965" lon="18.08132">
        <ele>24</ele>
        <time>2020-02-06T06:58:33Z</time>
      </trkpt>
      <trkpt lat="59.338058" lon="18.081388">
        <ele>24</ele>
        <time>2020-02-06T06:58:36Z</time>
      </trkpt>
      <trkpt lat="59.338131" lon="18.081493">
        <ele>25</ele>
        <time>2020-02-06T06:58:39Z</time>
      </trkpt>
      <trkpt lat="59.33819" lon="18.081654">
        <ele>25</ele>
        <time>2020-02-06T06:58:43Z</time>
      </trkpt>
      <trkpt lat="59.338288" lon="18.081725">
        <ele>25</ele>
        <time>2020-02-06T06:58:47Z</time>
      </trkpt>
      <trkpt lat="59.338388" lon="18.081757">
        <ele>25</ele>
        <time>2020-02-06T06:58:50Z</time>
      </trkpt>
      <trkpt lat="59.33848" lon="18.081799">
        <ele>25</ele>
        <time>2020-02-06T06:58:55Z</time>
      </trkpt>
      <trkpt lat="59.338573" lon="18.081889">
        <ele>26</ele>
        <time>2020-02-06T06:59:00Z</time>
      </trkpt>
      <trkpt lat="59.338658" lon="18.081977">
        <ele>26</ele>
        <time>2020-02-06T06:59:05Z</time>
      </trkpt>
      <trkpt lat="59.338769" lon="18.082072">
        <ele>27</ele>
        <time>2020-02-06T06:59:10Z</time>
      </trkpt>
      <trkpt lat="59.338875" lon="18.082154">
        <ele>28</ele>
        <time>2020-02-06T06:59:12Z</time>
      </trkpt>
      <trkpt lat="59.338963" lon="18.082289">
        <ele>28</ele>
        <time>2020-02-06T06:59:14Z</time>
      </trkpt>
      <trkpt lat="59.339073" lon="18.082426">
        <ele>29</ele>
        <time>2020-02-06T06:59:17Z</time>
      </trkpt>
      <trkpt lat="59.339155" lon="18.082536">
        <ele>29</ele>
        <time>2020-02-06T06:59:20Z</time>
      </trkpt>
      <trkpt lat="59.339191" lon="18.082757">
        <ele>29</ele>
        <time>2020-02-06T06:59:24Z</time>
      </trkpt>
      <trkpt lat="59.339159" lon="18.082977">
        <ele>29</ele>
        <time>2020-02-06T06:59:28Z</time>
      </trkpt>
      <trkpt lat="59.339107" lon="18.083176">
        <ele>29</ele>
        <time>2020-02-06T06:59:32Z</time>
      </trkpt>
      <trkpt lat="59.33906" lon="18.083391">
        <ele>29</ele>
        <time>2020-02-06T06:59:36Z</time>
      </trkpt>
      <trkpt lat="59.339019" lon="18.083573">
        <ele>29</ele>
        <time>2020-02-06T06:59:39Z</time>
      </trkpt>
      <trkpt lat="59.339074" lon="18.083738">
        <ele>30</ele>
        <time>2020-02-06T06:59:46Z</time>
      </trkpt>
      <trkpt lat="59.339158" lon="18.083888">
        <ele>31</ele>
        <time>2020-02-06T06:59:51Z</time>
      </trkpt>
      <trkpt lat="59.339239" lon="18.08402">
        <ele>31</ele>
        <time>2020-02-06T06:59:54Z</time>
      </trkpt>
      <trkpt lat="59.33935" lon="18.084124">
        <ele>30</ele>
        <time>2020-02-06T06:59:57Z</time>
      </trkpt>
      <trkpt lat="59.339489" lon="18.084142">
        <ele>30</ele>
        <time>2020-02-06T06:59:59Z</time>
      </trkpt>
      <trkpt lat="59.339582" lon="18.084188">
        <ele>30</ele>
        <time>2020-02-06T07:00:01Z</time>
      </trkpt>
      <trkpt lat="59.339691" lon="18.084292">
        <ele>30</ele>
        <time>2020-02-06T07:00:04Z</time>
      </trkpt>
      <trkpt lat="59.339796" lon="18.08438">
        <ele>30</ele>
        <time>2020-02-06T07:00:07Z</time>
      </trkpt>
      <trkpt lat="59.339889" lon="18.084434">
        <ele>30</ele>
        <time>2020-02-06T07:00:10Z</time>
      </trkpt>
      <trkpt lat="59.339978" lon="18.084486">
        <ele>29</ele>
        <time>2020-02-06T07:00:13Z</time>
      </trkpt>
      <trkpt lat="59.340093" lon="18.084485">
        <ele>29</ele>
        <time>2020-02-06T07:00:17Z</time>
      </trkpt>
      <trkpt lat="59.340185" lon="18.084536">
        <ele>29</ele>
        <time>2020-02-06T07:00:20Z</time>
      </trkpt>
      <trkpt lat="59.340269" lon="18.084601">
        <ele>28</ele>
        <time>2020-02-06T07:00:23Z</time>
      </trkpt>
      <trkpt lat="59.340374" lon="18.084711">
        <ele>29</ele>
        <time>2020-02-06T07:00:27Z</time>
      </trkpt>
      <trkpt lat="59.340418" lon="18.08492">
        <ele>29</ele>
        <time>2020-02-06T07:00:31Z</time>
      </trkpt>
      <trkpt lat="59.340411" lon="18.085097">
        <ele>0</ele>
        <time>2020-02-06T07:00:34Z</time>
      </trkpt>
      <trkpt lat="59.340407" lon="18.085136">
        <ele>0</ele>
        <time>2020-02-06T07:00:35Z</time>
      </trkpt>
    </trkseg>
  </trk>
</gpx>